<?xml version="1.0" encoding="UTF-8" standalone="no" ?>
<gpx xmlns="http://www.topografix.com/GPX/1/1" xmlns:xsi="http://www.w3.org/2001/XMLSchema-instance" xsi:schemaLocation="http://www.topografix.com/GPX/1/1 http://www.topografix.com/GPX/1/1/gpx.xsd" version="1.1" creator="VisuGPX - https://www.visugpx.com">
  <metadata>
    <name>La Chartreuse de la Verne</name>
    <desc><![CDATA[Rando dans le Massif des Maures]]></desc>
  </metadata>
  <trk>
    <name><![CDATA[2015-03-02 15:20:13]]></name>
    <trkseg>
      <trkpt lat="43.23783" lon="6.39631">
        <ele>426.96</ele>
        <time>2015-03-02T09:07:36Z</time>
      </trkpt>
      <trkpt lat="43.23782" lon="6.39627">
        <ele>424.56</ele>
        <time>2015-03-02T09:07:58Z</time>
      </trkpt>
      <trkpt lat="43.23782" lon="6.3963">
        <ele>424.08</ele>
        <time>2015-03-02T09:08:20Z</time>
      </trkpt>
      <trkpt lat="43.23781" lon="6.39631">
        <ele>424.56</ele>
        <time>2015-03-02T09:08:40Z</time>
      </trkpt>
      <trkpt lat="43.23781" lon="6.39636">
        <ele>423.6</ele>
        <time>2015-03-02T09:08:55Z</time>
      </trkpt>
      <trkpt lat="43.23783" lon="6.39641">
        <ele>424.08</ele>
        <time>2015-03-02T09:09:14Z</time>
      </trkpt>
      <trkpt lat="43.23785" lon="6.39643">
        <ele>423.6</ele>
        <time>2015-03-02T09:09:32Z</time>
      </trkpt>
      <trkpt lat="43.23786" lon="6.39642">
        <ele>423.6</ele>
        <time>2015-03-02T09:09:54Z</time>
      </trkpt>
      <trkpt lat="43.23785" lon="6.39642">
        <ele>425.04</ele>
        <time>2015-03-02T09:10:14Z</time>
      </trkpt>
      <trkpt lat="43.23786" lon="6.39644">
        <ele>426</ele>
        <time>2015-03-02T09:10:34Z</time>
      </trkpt>
      <trkpt lat="43.23786" lon="6.39643">
        <ele>426.96</ele>
        <time>2015-03-02T09:10:57Z</time>
      </trkpt>
      <trkpt lat="43.23787" lon="6.39644">
        <ele>427.92</ele>
        <time>2015-03-02T09:11:20Z</time>
      </trkpt>
      <trkpt lat="43.23783" lon="6.39646">
        <ele>427.44</ele>
        <time>2015-03-02T09:11:39Z</time>
      </trkpt>
      <trkpt lat="43.23784" lon="6.39646">
        <ele>426.48</ele>
        <time>2015-03-02T09:11:55Z</time>
      </trkpt>
      <trkpt lat="43.23787" lon="6.39648">
        <ele>426.96</ele>
        <time>2015-03-02T09:12:13Z</time>
      </trkpt>
      <trkpt lat="43.23782" lon="6.39644">
        <ele>423.6</ele>
        <time>2015-03-02T09:12:38Z</time>
      </trkpt>
      <trkpt lat="43.23781" lon="6.39639">
        <ele>421.19</ele>
        <time>2015-03-02T09:13:05Z</time>
      </trkpt>
      <trkpt lat="43.23779" lon="6.39651">
        <ele>422.16</ele>
        <time>2015-03-02T09:13:21Z</time>
      </trkpt>
      <trkpt lat="43.2378" lon="6.39663">
        <ele>421.19</ele>
        <time>2015-03-02T09:13:34Z</time>
      </trkpt>
      <trkpt lat="43.23776" lon="6.39678">
        <ele>413.5</ele>
        <time>2015-03-02T09:13:50Z</time>
      </trkpt>
      <trkpt lat="43.23768" lon="6.39689">
        <ele>409.18</ele>
        <time>2015-03-02T09:14:05Z</time>
      </trkpt>
      <trkpt lat="43.23759" lon="6.39686">
        <ele>412.06</ele>
        <time>2015-03-02T09:14:18Z</time>
      </trkpt>
      <trkpt lat="43.23758" lon="6.39691">
        <ele>416.39</ele>
        <time>2015-03-02T09:14:39Z</time>
      </trkpt>
      <trkpt lat="43.23758" lon="6.3969">
        <ele>419.75</ele>
        <time>2015-03-02T09:15:02Z</time>
      </trkpt>
      <trkpt lat="43.23756" lon="6.39692">
        <ele>420.23</ele>
        <time>2015-03-02T09:15:32Z</time>
      </trkpt>
      <trkpt lat="43.23759" lon="6.39693">
        <ele>420.71</ele>
        <time>2015-03-02T09:16:04Z</time>
      </trkpt>
      <trkpt lat="43.23759" lon="6.39695">
        <ele>421.19</ele>
        <time>2015-03-02T09:16:32Z</time>
      </trkpt>
      <trkpt lat="43.23758" lon="6.39694">
        <ele>422.16</ele>
        <time>2015-03-02T09:16:56Z</time>
      </trkpt>
      <trkpt lat="43.23757" lon="6.39692">
        <ele>422.64</ele>
        <time>2015-03-02T09:17:29Z</time>
      </trkpt>
      <trkpt lat="43.23752" lon="6.3969">
        <ele>421.68</ele>
        <time>2015-03-02T09:17:52Z</time>
      </trkpt>
      <trkpt lat="43.2374" lon="6.39696">
        <ele>419.75</ele>
        <time>2015-03-02T09:18:07Z</time>
      </trkpt>
      <trkpt lat="43.23735" lon="6.397">
        <ele>419.27</ele>
        <time>2015-03-02T09:18:13Z</time>
      </trkpt>
      <trkpt lat="43.23728" lon="6.39703">
        <ele>418.31</ele>
        <time>2015-03-02T09:18:19Z</time>
      </trkpt>
      <trkpt lat="43.23712" lon="6.39722">
        <ele>420.23</ele>
        <time>2015-03-02T09:18:38Z</time>
      </trkpt>
      <trkpt lat="43.23701" lon="6.39741">
        <ele>417.83</ele>
        <time>2015-03-02T09:18:54Z</time>
      </trkpt>
      <trkpt lat="43.23691" lon="6.39757">
        <ele>415.91</ele>
        <time>2015-03-02T09:19:10Z</time>
      </trkpt>
      <trkpt lat="43.23689" lon="6.39758">
        <ele>415.43</ele>
        <time>2015-03-02T09:19:12Z</time>
      </trkpt>
      <trkpt lat="43.23681" lon="6.39766">
        <ele>413.5</ele>
        <time>2015-03-02T09:19:29Z</time>
      </trkpt>
      <trkpt lat="43.23678" lon="6.39771">
        <ele>413.5</ele>
        <time>2015-03-02T09:19:44Z</time>
      </trkpt>
      <trkpt lat="43.23675" lon="6.39775">
        <ele>415.91</ele>
        <time>2015-03-02T09:20:09Z</time>
      </trkpt>
      <trkpt lat="43.23663" lon="6.39782">
        <ele>416.39</ele>
        <time>2015-03-02T09:20:23Z</time>
      </trkpt>
      <trkpt lat="43.23645" lon="6.39795">
        <ele>417.35</ele>
        <time>2015-03-02T09:20:37Z</time>
      </trkpt>
      <trkpt lat="43.23639" lon="6.39799">
        <ele>417.83</ele>
        <time>2015-03-02T09:20:42Z</time>
      </trkpt>
      <trkpt lat="43.23637" lon="6.39799">
        <ele>417.83</ele>
        <time>2015-03-02T09:20:43Z</time>
      </trkpt>
      <trkpt lat="43.23636" lon="6.39799">
        <ele>417.83</ele>
        <time>2015-03-02T09:20:44Z</time>
      </trkpt>
      <trkpt lat="43.23635" lon="6.398">
        <ele>417.83</ele>
        <time>2015-03-02T09:20:45Z</time>
      </trkpt>
      <trkpt lat="43.23621" lon="6.39815">
        <ele>414.95</ele>
        <time>2015-03-02T09:20:58Z</time>
      </trkpt>
      <trkpt lat="43.23618" lon="6.39824">
        <ele>413.98</ele>
        <time>2015-03-02T09:21:03Z</time>
      </trkpt>
      <trkpt lat="43.23617" lon="6.39825">
        <ele>413.5</ele>
        <time>2015-03-02T09:21:04Z</time>
      </trkpt>
      <trkpt lat="43.23615" lon="6.39828">
        <ele>413.02</ele>
        <time>2015-03-02T09:21:06Z</time>
      </trkpt>
      <trkpt lat="43.23603" lon="6.39847">
        <ele>413.5</ele>
        <time>2015-03-02T09:21:19Z</time>
      </trkpt>
      <trkpt lat="43.23599" lon="6.39852">
        <ele>413.98</ele>
        <time>2015-03-02T09:21:24Z</time>
      </trkpt>
      <trkpt lat="43.23596" lon="6.39855">
        <ele>413.98</ele>
        <time>2015-03-02T09:21:26Z</time>
      </trkpt>
      <trkpt lat="43.23595" lon="6.39856">
        <ele>413.5</ele>
        <time>2015-03-02T09:21:27Z</time>
      </trkpt>
      <trkpt lat="43.23594" lon="6.39857">
        <ele>413.5</ele>
        <time>2015-03-02T09:21:28Z</time>
      </trkpt>
      <trkpt lat="43.23593" lon="6.39858">
        <ele>413.5</ele>
        <time>2015-03-02T09:21:29Z</time>
      </trkpt>
      <trkpt lat="43.23592" lon="6.39859">
        <ele>413.5</ele>
        <time>2015-03-02T09:21:30Z</time>
      </trkpt>
      <trkpt lat="43.23591" lon="6.3986">
        <ele>413.5</ele>
        <time>2015-03-02T09:21:31Z</time>
      </trkpt>
      <trkpt lat="43.23583" lon="6.39862">
        <ele>414.95</ele>
        <time>2015-03-02T09:21:38Z</time>
      </trkpt>
      <trkpt lat="43.23581" lon="6.39862">
        <ele>414.95</ele>
        <time>2015-03-02T09:21:39Z</time>
      </trkpt>
      <trkpt lat="43.23568" lon="6.39855">
        <ele>416.39</ele>
        <time>2015-03-02T09:21:54Z</time>
      </trkpt>
      <trkpt lat="43.23556" lon="6.39843">
        <ele>419.75</ele>
        <time>2015-03-02T09:22:03Z</time>
      </trkpt>
      <trkpt lat="43.23555" lon="6.39842">
        <ele>420.23</ele>
        <time>2015-03-02T09:22:04Z</time>
      </trkpt>
      <trkpt lat="43.23554" lon="6.39841">
        <ele>420.71</ele>
        <time>2015-03-02T09:22:05Z</time>
      </trkpt>
      <trkpt lat="43.23553" lon="6.3984">
        <ele>420.71</ele>
        <time>2015-03-02T09:22:06Z</time>
      </trkpt>
      <trkpt lat="43.23552" lon="6.39839">
        <ele>421.19</ele>
        <time>2015-03-02T09:22:07Z</time>
      </trkpt>
      <trkpt lat="43.23551" lon="6.39838">
        <ele>421.68</ele>
        <time>2015-03-02T09:22:08Z</time>
      </trkpt>
      <trkpt lat="43.2355" lon="6.39837">
        <ele>422.64</ele>
        <time>2015-03-02T09:22:09Z</time>
      </trkpt>
      <trkpt lat="43.23542" lon="6.39828">
        <ele>427.44</ele>
        <time>2015-03-02T09:22:18Z</time>
      </trkpt>
      <trkpt lat="43.23531" lon="6.3982">
        <ele>425.52</ele>
        <time>2015-03-02T09:22:29Z</time>
      </trkpt>
      <trkpt lat="43.23519" lon="6.39813">
        <ele>423.12</ele>
        <time>2015-03-02T09:22:41Z</time>
      </trkpt>
      <trkpt lat="43.23509" lon="6.39803">
        <ele>424.56</ele>
        <time>2015-03-02T09:22:53Z</time>
      </trkpt>
      <trkpt lat="43.235" lon="6.39793">
        <ele>426.48</ele>
        <time>2015-03-02T09:23:06Z</time>
      </trkpt>
      <trkpt lat="43.23499" lon="6.39791">
        <ele>426.96</ele>
        <time>2015-03-02T09:23:07Z</time>
      </trkpt>
      <trkpt lat="43.23487" lon="6.39781">
        <ele>429.85</ele>
        <time>2015-03-02T09:23:18Z</time>
      </trkpt>
      <trkpt lat="43.23482" lon="6.3978">
        <ele>429.85</ele>
        <time>2015-03-02T09:23:23Z</time>
      </trkpt>
      <trkpt lat="43.23479" lon="6.39783">
        <ele>428.89</ele>
        <time>2015-03-02T09:23:26Z</time>
      </trkpt>
      <trkpt lat="43.23474" lon="6.39799">
        <ele>423.6</ele>
        <time>2015-03-02T09:23:38Z</time>
      </trkpt>
      <trkpt lat="43.23475" lon="6.3981">
        <ele>421.68</ele>
        <time>2015-03-02T09:23:45Z</time>
      </trkpt>
      <trkpt lat="43.23477" lon="6.39826">
        <ele>415.91</ele>
        <time>2015-03-02T09:23:56Z</time>
      </trkpt>
      <trkpt lat="43.23476" lon="6.39842">
        <ele>413.5</ele>
        <time>2015-03-02T09:24:09Z</time>
      </trkpt>
      <trkpt lat="43.23477" lon="6.39864">
        <ele>412.06</ele>
        <time>2015-03-02T09:24:23Z</time>
      </trkpt>
      <trkpt lat="43.23464" lon="6.39874">
        <ele>407.74</ele>
        <time>2015-03-02T09:24:40Z</time>
      </trkpt>
      <trkpt lat="43.23451" lon="6.3989">
        <ele>409.18</ele>
        <time>2015-03-02T09:24:57Z</time>
      </trkpt>
      <trkpt lat="43.23446" lon="6.39903">
        <ele>412.06</ele>
        <time>2015-03-02T09:25:09Z</time>
      </trkpt>
      <trkpt lat="43.23438" lon="6.39916">
        <ele>416.39</ele>
        <time>2015-03-02T09:25:21Z</time>
      </trkpt>
      <trkpt lat="43.23436" lon="6.39928">
        <ele>419.75</ele>
        <time>2015-03-02T09:25:30Z</time>
      </trkpt>
      <trkpt lat="43.23436" lon="6.3993">
        <ele>419.75</ele>
        <time>2015-03-02T09:25:31Z</time>
      </trkpt>
      <trkpt lat="43.23441" lon="6.39948">
        <ele>417.83</ele>
        <time>2015-03-02T09:25:43Z</time>
      </trkpt>
      <trkpt lat="43.23443" lon="6.3995">
        <ele>417.83</ele>
        <time>2015-03-02T09:25:45Z</time>
      </trkpt>
      <trkpt lat="43.23445" lon="6.39952">
        <ele>417.83</ele>
        <time>2015-03-02T09:25:47Z</time>
      </trkpt>
      <trkpt lat="43.23456" lon="6.39972">
        <ele>417.83</ele>
        <time>2015-03-02T09:26:02Z</time>
      </trkpt>
      <trkpt lat="43.23464" lon="6.39989">
        <ele>415.91</ele>
        <time>2015-03-02T09:26:15Z</time>
      </trkpt>
      <trkpt lat="43.2347" lon="6.40005">
        <ele>411.58</ele>
        <time>2015-03-02T09:26:28Z</time>
      </trkpt>
      <trkpt lat="43.23475" lon="6.40015">
        <ele>409.66</ele>
        <time>2015-03-02T09:26:36Z</time>
      </trkpt>
      <trkpt lat="43.23483" lon="6.40028">
        <ele>412.06</ele>
        <time>2015-03-02T09:26:48Z</time>
      </trkpt>
      <trkpt lat="43.2349" lon="6.40041">
        <ele>412.06</ele>
        <time>2015-03-02T09:27:00Z</time>
      </trkpt>
      <trkpt lat="43.23489" lon="6.40043">
        <ele>413.5</ele>
        <time>2015-03-02T09:27:15Z</time>
      </trkpt>
      <trkpt lat="43.2349" lon="6.40041">
        <ele>419.27</ele>
        <time>2015-03-02T09:27:34Z</time>
      </trkpt>
      <trkpt lat="43.23489" lon="6.4004">
        <ele>423.12</ele>
        <time>2015-03-02T09:27:52Z</time>
      </trkpt>
      <trkpt lat="43.23489" lon="6.40038">
        <ele>424.08</ele>
        <time>2015-03-02T09:28:15Z</time>
      </trkpt>
      <trkpt lat="43.23481" lon="6.40022">
        <ele>426</ele>
        <time>2015-03-02T09:28:30Z</time>
      </trkpt>
      <trkpt lat="43.23479" lon="6.40015">
        <ele>426.48</ele>
        <time>2015-03-02T09:28:35Z</time>
      </trkpt>
      <trkpt lat="43.23473" lon="6.40008">
        <ele>426.48</ele>
        <time>2015-03-02T09:28:41Z</time>
      </trkpt>
      <trkpt lat="43.23472" lon="6.40006">
        <ele>426.96</ele>
        <time>2015-03-02T09:28:43Z</time>
      </trkpt>
      <trkpt lat="43.2347" lon="6.40003">
        <ele>426.96</ele>
        <time>2015-03-02T09:28:45Z</time>
      </trkpt>
      <trkpt lat="43.23465" lon="6.39997">
        <ele>426</ele>
        <time>2015-03-02T09:28:53Z</time>
      </trkpt>
      <trkpt lat="43.2346" lon="6.39987">
        <ele>424.56</ele>
        <time>2015-03-02T09:29:05Z</time>
      </trkpt>
      <trkpt lat="43.2346" lon="6.3998">
        <ele>426.48</ele>
        <time>2015-03-02T09:29:17Z</time>
      </trkpt>
      <trkpt lat="43.23455" lon="6.39968">
        <ele>428.4</ele>
        <time>2015-03-02T09:29:27Z</time>
      </trkpt>
      <trkpt lat="43.23445" lon="6.39961">
        <ele>427.44</ele>
        <time>2015-03-02T09:29:39Z</time>
      </trkpt>
      <trkpt lat="43.23435" lon="6.39955">
        <ele>423.6</ele>
        <time>2015-03-02T09:29:49Z</time>
      </trkpt>
      <trkpt lat="43.23428" lon="6.39954">
        <ele>421.68</ele>
        <time>2015-03-02T09:29:57Z</time>
      </trkpt>
      <trkpt lat="43.23421" lon="6.39948">
        <ele>421.19</ele>
        <time>2015-03-02T09:30:08Z</time>
      </trkpt>
      <trkpt lat="43.23415" lon="6.39946">
        <ele>420.71</ele>
        <time>2015-03-02T09:30:19Z</time>
      </trkpt>
      <trkpt lat="43.23414" lon="6.39928">
        <ele>422.64</ele>
        <time>2015-03-02T09:30:34Z</time>
      </trkpt>
      <trkpt lat="43.23417" lon="6.39915">
        <ele>425.52</ele>
        <time>2015-03-02T09:30:46Z</time>
      </trkpt>
      <trkpt lat="43.23424" lon="6.39903">
        <ele>424.56</ele>
        <time>2015-03-02T09:30:58Z</time>
      </trkpt>
      <trkpt lat="43.23432" lon="6.39886">
        <ele>426.48</ele>
        <time>2015-03-02T09:31:11Z</time>
      </trkpt>
      <trkpt lat="43.23442" lon="6.39864">
        <ele>428.4</ele>
        <time>2015-03-02T09:31:27Z</time>
      </trkpt>
      <trkpt lat="43.23444" lon="6.39854">
        <ele>431.29</ele>
        <time>2015-03-02T09:31:34Z</time>
      </trkpt>
      <trkpt lat="43.2344" lon="6.39838">
        <ele>428.4</ele>
        <time>2015-03-02T09:31:46Z</time>
      </trkpt>
      <trkpt lat="43.23436" lon="6.39821">
        <ele>431.29</ele>
        <time>2015-03-02T09:31:59Z</time>
      </trkpt>
      <trkpt lat="43.23435" lon="6.39806">
        <ele>430.81</ele>
        <time>2015-03-02T09:32:11Z</time>
      </trkpt>
      <trkpt lat="43.23435" lon="6.39791">
        <ele>433.69</ele>
        <time>2015-03-02T09:32:23Z</time>
      </trkpt>
      <trkpt lat="43.23434" lon="6.39772">
        <ele>435.13</ele>
        <time>2015-03-02T09:32:38Z</time>
      </trkpt>
      <trkpt lat="43.2343" lon="6.39757">
        <ele>436.1</ele>
        <time>2015-03-02T09:32:51Z</time>
      </trkpt>
      <trkpt lat="43.23423" lon="6.39747">
        <ele>435.13</ele>
        <time>2015-03-02T09:33:03Z</time>
      </trkpt>
      <trkpt lat="43.23415" lon="6.39742">
        <ele>434.65</ele>
        <time>2015-03-02T09:33:13Z</time>
      </trkpt>
      <trkpt lat="43.23406" lon="6.39736">
        <ele>433.21</ele>
        <time>2015-03-02T09:33:27Z</time>
      </trkpt>
      <trkpt lat="43.23398" lon="6.39729">
        <ele>434.17</ele>
        <time>2015-03-02T09:33:40Z</time>
      </trkpt>
      <trkpt lat="43.23389" lon="6.39721">
        <ele>435.13</ele>
        <time>2015-03-02T09:33:50Z</time>
      </trkpt>
      <trkpt lat="43.23385" lon="6.3971">
        <ele>438.98</ele>
        <time>2015-03-02T09:34:03Z</time>
      </trkpt>
      <trkpt lat="43.23388" lon="6.39699">
        <ele>442.34</ele>
        <time>2015-03-02T09:34:15Z</time>
      </trkpt>
      <trkpt lat="43.23387" lon="6.39689">
        <ele>444.75</ele>
        <time>2015-03-02T09:34:27Z</time>
      </trkpt>
      <trkpt lat="43.23383" lon="6.39674">
        <ele>446.19</ele>
        <time>2015-03-02T09:34:40Z</time>
      </trkpt>
      <trkpt lat="43.23382" lon="6.39673">
        <ele>446.19</ele>
        <time>2015-03-02T09:34:41Z</time>
      </trkpt>
      <trkpt lat="43.23377" lon="6.39661">
        <ele>448.11</ele>
        <time>2015-03-02T09:34:52Z</time>
      </trkpt>
      <trkpt lat="43.23372" lon="6.39648">
        <ele>448.59</ele>
        <time>2015-03-02T09:35:04Z</time>
      </trkpt>
      <trkpt lat="43.23369" lon="6.39639">
        <ele>450.03</ele>
        <time>2015-03-02T09:35:14Z</time>
      </trkpt>
      <trkpt lat="43.23366" lon="6.39626">
        <ele>451.48</ele>
        <time>2015-03-02T09:35:27Z</time>
      </trkpt>
      <trkpt lat="43.23361" lon="6.3961">
        <ele>453.88</ele>
        <time>2015-03-02T09:35:40Z</time>
      </trkpt>
      <trkpt lat="43.23357" lon="6.39599">
        <ele>454.84</ele>
        <time>2015-03-02T09:35:51Z</time>
      </trkpt>
      <trkpt lat="43.23354" lon="6.39589">
        <ele>453.88</ele>
        <time>2015-03-02T09:36:02Z</time>
      </trkpt>
      <trkpt lat="43.23351" lon="6.39576">
        <ele>454.36</ele>
        <time>2015-03-02T09:36:14Z</time>
      </trkpt>
      <trkpt lat="43.23346" lon="6.39567">
        <ele>454.84</ele>
        <time>2015-03-02T09:36:25Z</time>
      </trkpt>
      <trkpt lat="43.23342" lon="6.39558">
        <ele>454.36</ele>
        <time>2015-03-02T09:36:41Z</time>
      </trkpt>
      <trkpt lat="43.23338" lon="6.39546">
        <ele>458.21</ele>
        <time>2015-03-02T09:36:54Z</time>
      </trkpt>
      <trkpt lat="43.23333" lon="6.39538">
        <ele>459.65</ele>
        <time>2015-03-02T09:37:05Z</time>
      </trkpt>
      <trkpt lat="43.23326" lon="6.39528">
        <ele>461.09</ele>
        <time>2015-03-02T09:37:19Z</time>
      </trkpt>
      <trkpt lat="43.23322" lon="6.39522">
        <ele>461.09</ele>
        <time>2015-03-02T09:37:31Z</time>
      </trkpt>
      <trkpt lat="43.23313" lon="6.39512">
        <ele>463.49</ele>
        <time>2015-03-02T09:37:43Z</time>
      </trkpt>
      <trkpt lat="43.23302" lon="6.39504">
        <ele>459.65</ele>
        <time>2015-03-02T09:38:02Z</time>
      </trkpt>
      <trkpt lat="43.23288" lon="6.39491">
        <ele>462.05</ele>
        <time>2015-03-02T09:38:16Z</time>
      </trkpt>
      <trkpt lat="43.23279" lon="6.39479">
        <ele>463.01</ele>
        <time>2015-03-02T09:38:30Z</time>
      </trkpt>
      <trkpt lat="43.23274" lon="6.39473">
        <ele>464.93</ele>
        <time>2015-03-02T09:38:44Z</time>
      </trkpt>
      <trkpt lat="43.23268" lon="6.39463">
        <ele>467.82</ele>
        <time>2015-03-02T09:38:57Z</time>
      </trkpt>
      <trkpt lat="43.23263" lon="6.39455">
        <ele>470.7</ele>
        <time>2015-03-02T09:39:12Z</time>
      </trkpt>
      <trkpt lat="43.23254" lon="6.39448">
        <ele>470.22</ele>
        <time>2015-03-02T09:39:28Z</time>
      </trkpt>
      <trkpt lat="43.23246" lon="6.39448">
        <ele>470.22</ele>
        <time>2015-03-02T09:39:40Z</time>
      </trkpt>
      <trkpt lat="43.23236" lon="6.39446">
        <ele>468.78</ele>
        <time>2015-03-02T09:39:55Z</time>
      </trkpt>
      <trkpt lat="43.23226" lon="6.39449">
        <ele>465.9</ele>
        <time>2015-03-02T09:40:09Z</time>
      </trkpt>
      <trkpt lat="43.23217" lon="6.39443">
        <ele>467.82</ele>
        <time>2015-03-02T09:40:22Z</time>
      </trkpt>
      <trkpt lat="43.23217" lon="6.39425">
        <ele>473.59</ele>
        <time>2015-03-02T09:40:35Z</time>
      </trkpt>
      <trkpt lat="43.23215" lon="6.3941">
        <ele>476.95</ele>
        <time>2015-03-02T09:40:48Z</time>
      </trkpt>
      <trkpt lat="43.23211" lon="6.39398">
        <ele>478.39</ele>
        <time>2015-03-02T09:41:02Z</time>
      </trkpt>
      <trkpt lat="43.23205" lon="6.39393">
        <ele>477.43</ele>
        <time>2015-03-02T09:41:13Z</time>
      </trkpt>
      <trkpt lat="43.23197" lon="6.39384">
        <ele>476.95</ele>
        <time>2015-03-02T09:41:27Z</time>
      </trkpt>
      <trkpt lat="43.23185" lon="6.39378">
        <ele>481.28</ele>
        <time>2015-03-02T09:41:40Z</time>
      </trkpt>
      <trkpt lat="43.23175" lon="6.39371">
        <ele>483.68</ele>
        <time>2015-03-02T09:41:55Z</time>
      </trkpt>
      <trkpt lat="43.23169" lon="6.39357">
        <ele>483.68</ele>
        <time>2015-03-02T09:42:09Z</time>
      </trkpt>
      <trkpt lat="43.23172" lon="6.3935">
        <ele>478.39</ele>
        <time>2015-03-02T09:42:23Z</time>
      </trkpt>
      <trkpt lat="43.23172" lon="6.39351">
        <ele>474.07</ele>
        <time>2015-03-02T09:42:52Z</time>
      </trkpt>
      <trkpt lat="43.23171" lon="6.39356">
        <ele>475.51</ele>
        <time>2015-03-02T09:43:17Z</time>
      </trkpt>
      <trkpt lat="43.2317" lon="6.39346">
        <ele>477.43</ele>
        <time>2015-03-02T09:43:35Z</time>
      </trkpt>
      <trkpt lat="43.23168" lon="6.3933">
        <ele>482.72</ele>
        <time>2015-03-02T09:43:51Z</time>
      </trkpt>
      <trkpt lat="43.23163" lon="6.39318">
        <ele>490.41</ele>
        <time>2015-03-02T09:44:26Z</time>
      </trkpt>
      <trkpt lat="43.23164" lon="6.39331">
        <ele>487.05</ele>
        <time>2015-03-02T09:44:42Z</time>
      </trkpt>
      <trkpt lat="43.23162" lon="6.39329">
        <ele>488.49</ele>
        <time>2015-03-02T09:45:01Z</time>
      </trkpt>
      <trkpt lat="43.23151" lon="6.39326">
        <ele>488.49</ele>
        <time>2015-03-02T09:45:17Z</time>
      </trkpt>
      <trkpt lat="43.23138" lon="6.39313">
        <ele>490.89</ele>
        <time>2015-03-02T09:45:35Z</time>
      </trkpt>
      <trkpt lat="43.23132" lon="6.39295">
        <ele>490.89</ele>
        <time>2015-03-02T09:45:50Z</time>
      </trkpt>
      <trkpt lat="43.23129" lon="6.39287">
        <ele>491.85</ele>
        <time>2015-03-02T09:46:01Z</time>
      </trkpt>
      <trkpt lat="43.23125" lon="6.39274">
        <ele>490.41</ele>
        <time>2015-03-02T09:46:15Z</time>
      </trkpt>
      <trkpt lat="43.23121" lon="6.39257">
        <ele>492.81</ele>
        <time>2015-03-02T09:46:29Z</time>
      </trkpt>
      <trkpt lat="43.23112" lon="6.39239">
        <ele>498.1</ele>
        <time>2015-03-02T09:46:45Z</time>
      </trkpt>
      <trkpt lat="43.23106" lon="6.39223">
        <ele>497.14</ele>
        <time>2015-03-02T09:46:56Z</time>
      </trkpt>
      <trkpt lat="43.23104" lon="6.39207">
        <ele>500.02</ele>
        <time>2015-03-02T09:47:12Z</time>
      </trkpt>
      <trkpt lat="43.23101" lon="6.39193">
        <ele>500.02</ele>
        <time>2015-03-02T09:47:25Z</time>
      </trkpt>
      <trkpt lat="43.23096" lon="6.39175">
        <ele>499.54</ele>
        <time>2015-03-02T09:47:39Z</time>
      </trkpt>
      <trkpt lat="43.2309" lon="6.39163">
        <ele>502.43</ele>
        <time>2015-03-02T09:47:51Z</time>
      </trkpt>
      <trkpt lat="43.23083" lon="6.39152">
        <ele>507.23</ele>
        <time>2015-03-02T09:48:07Z</time>
      </trkpt>
      <trkpt lat="43.23083" lon="6.39154">
        <ele>510.6</ele>
        <time>2015-03-02T09:48:25Z</time>
      </trkpt>
      <trkpt lat="43.23083" lon="6.39152">
        <ele>513.96</ele>
        <time>2015-03-02T09:48:47Z</time>
      </trkpt>
      <trkpt lat="43.23084" lon="6.39148">
        <ele>516.37</ele>
        <time>2015-03-02T09:49:07Z</time>
      </trkpt>
      <trkpt lat="43.2308" lon="6.39152">
        <ele>516.37</ele>
        <time>2015-03-02T09:49:28Z</time>
      </trkpt>
      <trkpt lat="43.23083" lon="6.39148">
        <ele>519.73</ele>
        <time>2015-03-02T09:49:51Z</time>
      </trkpt>
      <trkpt lat="43.23087" lon="6.39147">
        <ele>519.25</ele>
        <time>2015-03-02T09:50:16Z</time>
      </trkpt>
      <trkpt lat="43.23085" lon="6.39148">
        <ele>519.73</ele>
        <time>2015-03-02T09:50:41Z</time>
      </trkpt>
      <trkpt lat="43.2308" lon="6.39147">
        <ele>517.81</ele>
        <time>2015-03-02T09:51:04Z</time>
      </trkpt>
      <trkpt lat="43.2308" lon="6.3915">
        <ele>514.44</ele>
        <time>2015-03-02T09:51:32Z</time>
      </trkpt>
      <trkpt lat="43.23077" lon="6.3915">
        <ele>516.85</ele>
        <time>2015-03-02T09:51:53Z</time>
      </trkpt>
      <trkpt lat="43.23069" lon="6.39152">
        <ele>518.77</ele>
        <time>2015-03-02T09:52:06Z</time>
      </trkpt>
      <trkpt lat="43.23058" lon="6.39154">
        <ele>516.85</ele>
        <time>2015-03-02T09:52:19Z</time>
      </trkpt>
      <trkpt lat="43.23047" lon="6.39158">
        <ele>514.44</ele>
        <time>2015-03-02T09:52:33Z</time>
      </trkpt>
      <trkpt lat="43.23033" lon="6.3916">
        <ele>508.67</ele>
        <time>2015-03-02T09:52:48Z</time>
      </trkpt>
      <trkpt lat="43.23017" lon="6.39158">
        <ele>505.31</ele>
        <time>2015-03-02T09:53:02Z</time>
      </trkpt>
      <trkpt lat="43.23006" lon="6.39156">
        <ele>503.87</ele>
        <time>2015-03-02T09:53:15Z</time>
      </trkpt>
      <trkpt lat="43.22994" lon="6.39153">
        <ele>502.91</ele>
        <time>2015-03-02T09:53:28Z</time>
      </trkpt>
      <trkpt lat="43.22981" lon="6.39149">
        <ele>503.39</ele>
        <time>2015-03-02T09:53:40Z</time>
      </trkpt>
      <trkpt lat="43.22957" lon="6.3914">
        <ele>507.23</ele>
        <time>2015-03-02T09:53:59Z</time>
      </trkpt>
      <trkpt lat="43.22941" lon="6.39132">
        <ele>505.79</ele>
        <time>2015-03-02T09:54:14Z</time>
      </trkpt>
      <trkpt lat="43.22928" lon="6.39134">
        <ele>501.95</ele>
        <time>2015-03-02T09:54:28Z</time>
      </trkpt>
      <trkpt lat="43.2291" lon="6.39127">
        <ele>502.43</ele>
        <time>2015-03-02T09:54:44Z</time>
      </trkpt>
      <trkpt lat="43.22889" lon="6.39111">
        <ele>505.79</ele>
        <time>2015-03-02T09:55:02Z</time>
      </trkpt>
      <trkpt lat="43.22865" lon="6.39095">
        <ele>508.67</ele>
        <time>2015-03-02T09:55:24Z</time>
      </trkpt>
      <trkpt lat="43.22849" lon="6.39094">
        <ele>505.31</ele>
        <time>2015-03-02T09:55:40Z</time>
      </trkpt>
      <trkpt lat="43.22834" lon="6.39101">
        <ele>505.31</ele>
        <time>2015-03-02T09:55:54Z</time>
      </trkpt>
      <trkpt lat="43.22822" lon="6.39103">
        <ele>505.79</ele>
        <time>2015-03-02T09:56:05Z</time>
      </trkpt>
      <trkpt lat="43.22806" lon="6.39103">
        <ele>502.91</ele>
        <time>2015-03-02T09:56:20Z</time>
      </trkpt>
      <trkpt lat="43.22788" lon="6.39112">
        <ele>502.91</ele>
        <time>2015-03-02T09:56:37Z</time>
      </trkpt>
      <trkpt lat="43.22766" lon="6.39118">
        <ele>504.35</ele>
        <time>2015-03-02T09:56:54Z</time>
      </trkpt>
      <trkpt lat="43.22753" lon="6.39122">
        <ele>501.46</ele>
        <time>2015-03-02T09:57:07Z</time>
      </trkpt>
      <trkpt lat="43.22741" lon="6.39119">
        <ele>495.7</ele>
        <time>2015-03-02T09:57:23Z</time>
      </trkpt>
      <trkpt lat="43.22715" lon="6.39109">
        <ele>500.5</ele>
        <time>2015-03-02T09:57:41Z</time>
      </trkpt>
      <trkpt lat="43.22694" lon="6.39096">
        <ele>504.83</ele>
        <time>2015-03-02T09:58:00Z</time>
      </trkpt>
      <trkpt lat="43.22678" lon="6.39094">
        <ele>504.35</ele>
        <time>2015-03-02T09:58:13Z</time>
      </trkpt>
      <trkpt lat="43.22658" lon="6.39102">
        <ele>503.87</ele>
        <time>2015-03-02T09:58:29Z</time>
      </trkpt>
      <trkpt lat="43.22643" lon="6.3911">
        <ele>503.39</ele>
        <time>2015-03-02T09:58:42Z</time>
      </trkpt>
      <trkpt lat="43.22633" lon="6.39119">
        <ele>501.95</ele>
        <time>2015-03-02T09:58:55Z</time>
      </trkpt>
      <trkpt lat="43.22617" lon="6.39121">
        <ele>500.5</ele>
        <time>2015-03-02T09:59:09Z</time>
      </trkpt>
      <trkpt lat="43.22599" lon="6.39106">
        <ele>500.02</ele>
        <time>2015-03-02T09:59:27Z</time>
      </trkpt>
      <trkpt lat="43.22593" lon="6.39092">
        <ele>494.26</ele>
        <time>2015-03-02T09:59:42Z</time>
      </trkpt>
      <trkpt lat="43.2259" lon="6.39068">
        <ele>491.85</ele>
        <time>2015-03-02T09:59:59Z</time>
      </trkpt>
      <trkpt lat="43.22587" lon="6.39037">
        <ele>495.22</ele>
        <time>2015-03-02T10:00:15Z</time>
      </trkpt>
      <trkpt lat="43.22577" lon="6.39017">
        <ele>494.26</ele>
        <time>2015-03-02T10:00:30Z</time>
      </trkpt>
      <trkpt lat="43.2257" lon="6.38998">
        <ele>496.18</ele>
        <time>2015-03-02T10:00:45Z</time>
      </trkpt>
      <trkpt lat="43.22567" lon="6.38991">
        <ele>499.54</ele>
        <time>2015-03-02T10:00:49Z</time>
      </trkpt>
      <trkpt lat="43.22554" lon="6.38967">
        <ele>510.12</ele>
        <time>2015-03-02T10:01:02Z</time>
      </trkpt>
      <trkpt lat="43.22541" lon="6.38954">
        <ele>515.4</ele>
        <time>2015-03-02T10:01:15Z</time>
      </trkpt>
      <trkpt lat="43.2252" lon="6.38945">
        <ele>515.88</ele>
        <time>2015-03-02T10:01:33Z</time>
      </trkpt>
      <trkpt lat="43.22508" lon="6.38936">
        <ele>517.81</ele>
        <time>2015-03-02T10:01:50Z</time>
      </trkpt>
      <trkpt lat="43.22509" lon="6.38936">
        <ele>519.25</ele>
        <time>2015-03-02T10:02:11Z</time>
      </trkpt>
      <trkpt lat="43.22509" lon="6.38938">
        <ele>522.13</ele>
        <time>2015-03-02T10:02:34Z</time>
      </trkpt>
      <trkpt lat="43.2251" lon="6.38938">
        <ele>523.58</ele>
        <time>2015-03-02T10:02:57Z</time>
      </trkpt>
      <trkpt lat="43.22511" lon="6.38934">
        <ele>525.5</ele>
        <time>2015-03-02T10:03:21Z</time>
      </trkpt>
      <trkpt lat="43.22512" lon="6.38932">
        <ele>525.02</ele>
        <time>2015-03-02T10:03:45Z</time>
      </trkpt>
      <trkpt lat="43.2251" lon="6.38934">
        <ele>523.09</ele>
        <time>2015-03-02T10:04:04Z</time>
      </trkpt>
      <trkpt lat="43.22508" lon="6.38937">
        <ele>521.17</ele>
        <time>2015-03-02T10:04:21Z</time>
      </trkpt>
      <trkpt lat="43.22508" lon="6.38937">
        <ele>523.09</ele>
        <time>2015-03-02T10:04:46Z</time>
      </trkpt>
      <trkpt lat="43.2251" lon="6.38934">
        <ele>524.06</ele>
        <time>2015-03-02T10:05:19Z</time>
      </trkpt>
      <trkpt lat="43.22508" lon="6.38938">
        <ele>521.65</ele>
        <time>2015-03-02T10:05:50Z</time>
      </trkpt>
      <trkpt lat="43.22508" lon="6.38939">
        <ele>518.77</ele>
        <time>2015-03-02T10:06:20Z</time>
      </trkpt>
      <trkpt lat="43.22507" lon="6.38939">
        <ele>518.77</ele>
        <time>2015-03-02T10:06:45Z</time>
      </trkpt>
      <trkpt lat="43.22507" lon="6.38937">
        <ele>518.29</ele>
        <time>2015-03-02T10:07:10Z</time>
      </trkpt>
      <trkpt lat="43.22507" lon="6.38938">
        <ele>519.73</ele>
        <time>2015-03-02T10:07:35Z</time>
      </trkpt>
      <trkpt lat="43.22508" lon="6.38935">
        <ele>520.21</ele>
        <time>2015-03-02T10:08:07Z</time>
      </trkpt>
      <trkpt lat="43.22509" lon="6.38936">
        <ele>520.69</ele>
        <time>2015-03-02T10:08:33Z</time>
      </trkpt>
      <trkpt lat="43.22508" lon="6.38935">
        <ele>519.73</ele>
        <time>2015-03-02T10:08:59Z</time>
      </trkpt>
      <trkpt lat="43.22497" lon="6.38931">
        <ele>520.21</ele>
        <time>2015-03-02T10:09:15Z</time>
      </trkpt>
      <trkpt lat="43.22488" lon="6.38924">
        <ele>520.21</ele>
        <time>2015-03-02T10:09:25Z</time>
      </trkpt>
      <trkpt lat="43.2247" lon="6.38915">
        <ele>518.29</ele>
        <time>2015-03-02T10:09:42Z</time>
      </trkpt>
      <trkpt lat="43.22447" lon="6.38915">
        <ele>511.56</ele>
        <time>2015-03-02T10:10:03Z</time>
      </trkpt>
      <trkpt lat="43.22431" lon="6.38923">
        <ele>505.31</ele>
        <time>2015-03-02T10:10:20Z</time>
      </trkpt>
      <trkpt lat="43.2243" lon="6.38924">
        <ele>504.83</ele>
        <time>2015-03-02T10:10:21Z</time>
      </trkpt>
      <trkpt lat="43.22424" lon="6.38927">
        <ele>505.31</ele>
        <time>2015-03-02T10:10:26Z</time>
      </trkpt>
      <trkpt lat="43.22404" lon="6.3894">
        <ele>511.56</ele>
        <time>2015-03-02T10:10:43Z</time>
      </trkpt>
      <trkpt lat="43.22389" lon="6.38954">
        <ele>515.4</ele>
        <time>2015-03-02T10:10:57Z</time>
      </trkpt>
      <trkpt lat="43.22376" lon="6.38971">
        <ele>519.73</ele>
        <time>2015-03-02T10:11:13Z</time>
      </trkpt>
      <trkpt lat="43.22366" lon="6.38998">
        <ele>522.13</ele>
        <time>2015-03-02T10:11:30Z</time>
      </trkpt>
      <trkpt lat="43.22363" lon="6.39022">
        <ele>523.58</ele>
        <time>2015-03-02T10:11:45Z</time>
      </trkpt>
      <trkpt lat="43.22363" lon="6.3904">
        <ele>522.13</ele>
        <time>2015-03-02T10:11:57Z</time>
      </trkpt>
      <trkpt lat="43.22359" lon="6.3907">
        <ele>523.09</ele>
        <time>2015-03-02T10:12:14Z</time>
      </trkpt>
      <trkpt lat="43.22354" lon="6.39093">
        <ele>523.09</ele>
        <time>2015-03-02T10:12:31Z</time>
      </trkpt>
      <trkpt lat="43.22348" lon="6.39116">
        <ele>520.69</ele>
        <time>2015-03-02T10:12:48Z</time>
      </trkpt>
      <trkpt lat="43.2234" lon="6.39144">
        <ele>521.17</ele>
        <time>2015-03-02T10:13:06Z</time>
      </trkpt>
      <trkpt lat="43.22339" lon="6.3915">
        <ele>522.61</ele>
        <time>2015-03-02T10:13:10Z</time>
      </trkpt>
      <trkpt lat="43.22336" lon="6.39155">
        <ele>523.09</ele>
        <time>2015-03-02T10:13:13Z</time>
      </trkpt>
      <trkpt lat="43.22321" lon="6.39173">
        <ele>524.54</ele>
        <time>2015-03-02T10:13:29Z</time>
      </trkpt>
      <trkpt lat="43.223" lon="6.39181">
        <ele>527.9</ele>
        <time>2015-03-02T10:13:49Z</time>
      </trkpt>
      <trkpt lat="43.22283" lon="6.39195">
        <ele>531.75</ele>
        <time>2015-03-02T10:14:06Z</time>
      </trkpt>
      <trkpt lat="43.22265" lon="6.39213">
        <ele>531.75</ele>
        <time>2015-03-02T10:14:24Z</time>
      </trkpt>
      <trkpt lat="43.22261" lon="6.39217">
        <ele>531.27</ele>
        <time>2015-03-02T10:14:29Z</time>
      </trkpt>
      <trkpt lat="43.22242" lon="6.39234">
        <ele>532.23</ele>
        <time>2015-03-02T10:14:48Z</time>
      </trkpt>
      <trkpt lat="43.22226" lon="6.39253">
        <ele>533.19</ele>
        <time>2015-03-02T10:15:08Z</time>
      </trkpt>
      <trkpt lat="43.22222" lon="6.39254">
        <ele>535.11</ele>
        <time>2015-03-02T10:15:24Z</time>
      </trkpt>
      <trkpt lat="43.2222" lon="6.39254">
        <ele>531.75</ele>
        <time>2015-03-02T10:15:43Z</time>
      </trkpt>
      <trkpt lat="43.2222" lon="6.39254">
        <ele>532.71</ele>
        <time>2015-03-02T10:16:04Z</time>
      </trkpt>
      <trkpt lat="43.22222" lon="6.39259">
        <ele>530.79</ele>
        <time>2015-03-02T10:16:17Z</time>
      </trkpt>
      <trkpt lat="43.22223" lon="6.39262">
        <ele>530.3</ele>
        <time>2015-03-02T10:16:20Z</time>
      </trkpt>
      <trkpt lat="43.22237" lon="6.39293">
        <ele>530.79</ele>
        <time>2015-03-02T10:16:44Z</time>
      </trkpt>
      <trkpt lat="43.22247" lon="6.39315">
        <ele>530.3</ele>
        <time>2015-03-02T10:17:03Z</time>
      </trkpt>
      <trkpt lat="43.22258" lon="6.39339">
        <ele>531.27</ele>
        <time>2015-03-02T10:17:21Z</time>
      </trkpt>
      <trkpt lat="43.22267" lon="6.39359">
        <ele>528.86</ele>
        <time>2015-03-02T10:17:37Z</time>
      </trkpt>
      <trkpt lat="43.22274" lon="6.39378">
        <ele>530.3</ele>
        <time>2015-03-02T10:17:54Z</time>
      </trkpt>
      <trkpt lat="43.22284" lon="6.39402">
        <ele>526.94</ele>
        <time>2015-03-02T10:18:12Z</time>
      </trkpt>
      <trkpt lat="43.22293" lon="6.39432">
        <ele>527.42</ele>
        <time>2015-03-02T10:18:32Z</time>
      </trkpt>
      <trkpt lat="43.22299" lon="6.39456">
        <ele>527.9</ele>
        <time>2015-03-02T10:18:49Z</time>
      </trkpt>
      <trkpt lat="43.22305" lon="6.39481">
        <ele>529.82</ele>
        <time>2015-03-02T10:19:05Z</time>
      </trkpt>
      <trkpt lat="43.22314" lon="6.39509">
        <ele>531.27</ele>
        <time>2015-03-02T10:19:24Z</time>
      </trkpt>
      <trkpt lat="43.22323" lon="6.39533">
        <ele>532.23</ele>
        <time>2015-03-02T10:19:41Z</time>
      </trkpt>
      <trkpt lat="43.22325" lon="6.39535">
        <ele>532.71</ele>
        <time>2015-03-02T10:19:43Z</time>
      </trkpt>
      <trkpt lat="43.22333" lon="6.39558">
        <ele>529.82</ele>
        <time>2015-03-02T10:20:01Z</time>
      </trkpt>
      <trkpt lat="43.22339" lon="6.39583">
        <ele>532.71</ele>
        <time>2015-03-02T10:20:18Z</time>
      </trkpt>
      <trkpt lat="43.22345" lon="6.39608">
        <ele>531.75</ele>
        <time>2015-03-02T10:20:35Z</time>
      </trkpt>
      <trkpt lat="43.22351" lon="6.39635">
        <ele>533.67</ele>
        <time>2015-03-02T10:20:53Z</time>
      </trkpt>
      <trkpt lat="43.22357" lon="6.39664">
        <ele>536.55</ele>
        <time>2015-03-02T10:21:11Z</time>
      </trkpt>
      <trkpt lat="43.22372" lon="6.39678">
        <ele>537.51</ele>
        <time>2015-03-02T10:21:28Z</time>
      </trkpt>
      <trkpt lat="43.22391" lon="6.39687">
        <ele>536.55</ele>
        <time>2015-03-02T10:21:46Z</time>
      </trkpt>
      <trkpt lat="43.22393" lon="6.39689">
        <ele>536.55</ele>
        <time>2015-03-02T10:21:48Z</time>
      </trkpt>
      <trkpt lat="43.2241" lon="6.39713">
        <ele>537.99</ele>
        <time>2015-03-02T10:22:07Z</time>
      </trkpt>
      <trkpt lat="43.22419" lon="6.3973">
        <ele>536.55</ele>
        <time>2015-03-02T10:22:22Z</time>
      </trkpt>
      <trkpt lat="43.2243" lon="6.39751">
        <ele>538.96</ele>
        <time>2015-03-02T10:22:37Z</time>
      </trkpt>
      <trkpt lat="43.22438" lon="6.39769">
        <ele>541.36</ele>
        <time>2015-03-02T10:22:50Z</time>
      </trkpt>
      <trkpt lat="43.22448" lon="6.39787">
        <ele>540.88</ele>
        <time>2015-03-02T10:23:05Z</time>
      </trkpt>
      <trkpt lat="43.22452" lon="6.39794">
        <ele>540.88</ele>
        <time>2015-03-02T10:23:11Z</time>
      </trkpt>
      <trkpt lat="43.22454" lon="6.39798">
        <ele>539.92</ele>
        <time>2015-03-02T10:23:14Z</time>
      </trkpt>
      <trkpt lat="43.22463" lon="6.39815">
        <ele>535.59</ele>
        <time>2015-03-02T10:23:31Z</time>
      </trkpt>
      <trkpt lat="43.22457" lon="6.39825">
        <ele>537.51</ele>
        <time>2015-03-02T10:23:43Z</time>
      </trkpt>
      <trkpt lat="43.22438" lon="6.39827">
        <ele>538.48</ele>
        <time>2015-03-02T10:24:01Z</time>
      </trkpt>
      <trkpt lat="43.22432" lon="6.39833">
        <ele>539.44</ele>
        <time>2015-03-02T10:24:08Z</time>
      </trkpt>
      <trkpt lat="43.22429" lon="6.39838">
        <ele>539.44</ele>
        <time>2015-03-02T10:24:12Z</time>
      </trkpt>
      <trkpt lat="43.22424" lon="6.39849">
        <ele>538.48</ele>
        <time>2015-03-02T10:24:20Z</time>
      </trkpt>
      <trkpt lat="43.22417" lon="6.39872">
        <ele>537.51</ele>
        <time>2015-03-02T10:24:36Z</time>
      </trkpt>
      <trkpt lat="43.22413" lon="6.39877">
        <ele>537.03</ele>
        <time>2015-03-02T10:24:41Z</time>
      </trkpt>
      <trkpt lat="43.22396" lon="6.3989">
        <ele>536.55</ele>
        <time>2015-03-02T10:24:57Z</time>
      </trkpt>
      <trkpt lat="43.22386" lon="6.39906">
        <ele>534.63</ele>
        <time>2015-03-02T10:25:13Z</time>
      </trkpt>
      <trkpt lat="43.22385" lon="6.39908">
        <ele>533.67</ele>
        <time>2015-03-02T10:25:31Z</time>
      </trkpt>
      <trkpt lat="43.22382" lon="6.39908">
        <ele>533.19</ele>
        <time>2015-03-02T10:25:55Z</time>
      </trkpt>
      <trkpt lat="43.22382" lon="6.3991">
        <ele>531.27</ele>
        <time>2015-03-02T10:26:19Z</time>
      </trkpt>
      <trkpt lat="43.22383" lon="6.39912">
        <ele>532.23</ele>
        <time>2015-03-02T10:26:41Z</time>
      </trkpt>
      <trkpt lat="43.22382" lon="6.39917">
        <ele>534.15</ele>
        <time>2015-03-02T10:27:12Z</time>
      </trkpt>
      <trkpt lat="43.22382" lon="6.39923">
        <ele>534.63</ele>
        <time>2015-03-02T10:27:26Z</time>
      </trkpt>
      <trkpt lat="43.22384" lon="6.39944">
        <ele>531.75</ele>
        <time>2015-03-02T10:27:43Z</time>
      </trkpt>
      <trkpt lat="43.22385" lon="6.39947">
        <ele>531.75</ele>
        <time>2015-03-02T10:27:45Z</time>
      </trkpt>
      <trkpt lat="43.22386" lon="6.39969">
        <ele>530.79</ele>
        <time>2015-03-02T10:27:59Z</time>
      </trkpt>
      <trkpt lat="43.22383" lon="6.39999">
        <ele>529.82</ele>
        <time>2015-03-02T10:28:17Z</time>
      </trkpt>
      <trkpt lat="43.22385" lon="6.40029">
        <ele>526.94</ele>
        <time>2015-03-02T10:28:37Z</time>
      </trkpt>
      <trkpt lat="43.2239" lon="6.40058">
        <ele>525.02</ele>
        <time>2015-03-02T10:28:55Z</time>
      </trkpt>
      <trkpt lat="43.22393" lon="6.40092">
        <ele>523.09</ele>
        <time>2015-03-02T10:29:16Z</time>
      </trkpt>
      <trkpt lat="43.22393" lon="6.40115">
        <ele>521.65</ele>
        <time>2015-03-02T10:29:31Z</time>
      </trkpt>
      <trkpt lat="43.22396" lon="6.40141">
        <ele>520.69</ele>
        <time>2015-03-02T10:29:48Z</time>
      </trkpt>
      <trkpt lat="43.22402" lon="6.40163">
        <ele>518.77</ele>
        <time>2015-03-02T10:30:04Z</time>
      </trkpt>
      <trkpt lat="43.22402" lon="6.40188">
        <ele>518.77</ele>
        <time>2015-03-02T10:30:21Z</time>
      </trkpt>
      <trkpt lat="43.22408" lon="6.40204">
        <ele>516.37</ele>
        <time>2015-03-02T10:30:35Z</time>
      </trkpt>
      <trkpt lat="43.22417" lon="6.40227">
        <ele>512.52</ele>
        <time>2015-03-02T10:30:51Z</time>
      </trkpt>
      <trkpt lat="43.22416" lon="6.4024">
        <ele>512.52</ele>
        <time>2015-03-02T10:30:59Z</time>
      </trkpt>
      <trkpt lat="43.22407" lon="6.40267">
        <ele>514.92</ele>
        <time>2015-03-02T10:31:16Z</time>
      </trkpt>
      <trkpt lat="43.22401" lon="6.40291">
        <ele>513</ele>
        <time>2015-03-02T10:31:31Z</time>
      </trkpt>
      <trkpt lat="43.22391" lon="6.40317">
        <ele>514.44</ele>
        <time>2015-03-02T10:31:49Z</time>
      </trkpt>
      <trkpt lat="43.22387" lon="6.40325">
        <ele>514.92</ele>
        <time>2015-03-02T10:31:54Z</time>
      </trkpt>
      <trkpt lat="43.22382" lon="6.40358">
        <ele>513.96</ele>
        <time>2015-03-02T10:32:14Z</time>
      </trkpt>
      <trkpt lat="43.22382" lon="6.40363">
        <ele>513.48</ele>
        <time>2015-03-02T10:32:17Z</time>
      </trkpt>
      <trkpt lat="43.22392" lon="6.40386">
        <ele>509.16</ele>
        <time>2015-03-02T10:32:33Z</time>
      </trkpt>
      <trkpt lat="43.22404" lon="6.40398">
        <ele>509.16</ele>
        <time>2015-03-02T10:32:52Z</time>
      </trkpt>
      <trkpt lat="43.22405" lon="6.40403">
        <ele>512.52</ele>
        <time>2015-03-02T10:33:19Z</time>
      </trkpt>
      <trkpt lat="43.22406" lon="6.40408">
        <ele>513.96</ele>
        <time>2015-03-02T10:33:33Z</time>
      </trkpt>
      <trkpt lat="43.22399" lon="6.40429">
        <ele>514.44</ele>
        <time>2015-03-02T10:33:51Z</time>
      </trkpt>
      <trkpt lat="43.22389" lon="6.40456">
        <ele>512.04</ele>
        <time>2015-03-02T10:34:10Z</time>
      </trkpt>
      <trkpt lat="43.2238" lon="6.40492">
        <ele>509.64</ele>
        <time>2015-03-02T10:34:33Z</time>
      </trkpt>
      <trkpt lat="43.22381" lon="6.40518">
        <ele>507.71</ele>
        <time>2015-03-02T10:34:50Z</time>
      </trkpt>
      <trkpt lat="43.22383" lon="6.40541">
        <ele>506.75</ele>
        <time>2015-03-02T10:35:04Z</time>
      </trkpt>
      <trkpt lat="43.22391" lon="6.4057">
        <ele>505.79</ele>
        <time>2015-03-02T10:35:23Z</time>
      </trkpt>
      <trkpt lat="43.22403" lon="6.40598">
        <ele>505.31</ele>
        <time>2015-03-02T10:35:44Z</time>
      </trkpt>
      <trkpt lat="43.22409" lon="6.40603">
        <ele>504.83</ele>
        <time>2015-03-02T10:35:58Z</time>
      </trkpt>
      <trkpt lat="43.22416" lon="6.40606">
        <ele>506.75</ele>
        <time>2015-03-02T10:36:17Z</time>
      </trkpt>
      <trkpt lat="43.22426" lon="6.40612">
        <ele>506.75</ele>
        <time>2015-03-02T10:36:33Z</time>
      </trkpt>
      <trkpt lat="43.22441" lon="6.40619">
        <ele>507.23</ele>
        <time>2015-03-02T10:36:50Z</time>
      </trkpt>
      <trkpt lat="43.22444" lon="6.4062">
        <ele>507.71</ele>
        <time>2015-03-02T10:36:55Z</time>
      </trkpt>
      <trkpt lat="43.2246" lon="6.40631">
        <ele>507.23</ele>
        <time>2015-03-02T10:37:13Z</time>
      </trkpt>
      <trkpt lat="43.2247" lon="6.40645">
        <ele>505.79</ele>
        <time>2015-03-02T10:37:29Z</time>
      </trkpt>
      <trkpt lat="43.22474" lon="6.40645">
        <ele>506.27</ele>
        <time>2015-03-02T10:37:52Z</time>
      </trkpt>
      <trkpt lat="43.22474" lon="6.40644">
        <ele>509.64</ele>
        <time>2015-03-02T10:38:12Z</time>
      </trkpt>
      <trkpt lat="43.22473" lon="6.4064">
        <ele>513</ele>
        <time>2015-03-02T10:38:29Z</time>
      </trkpt>
      <trkpt lat="43.22472" lon="6.40638">
        <ele>512.52</ele>
        <time>2015-03-02T10:38:31Z</time>
      </trkpt>
      <trkpt lat="43.22471" lon="6.40636">
        <ele>512.52</ele>
        <time>2015-03-02T10:38:33Z</time>
      </trkpt>
      <trkpt lat="43.22454" lon="6.40621">
        <ele>509.16</ele>
        <time>2015-03-02T10:38:48Z</time>
      </trkpt>
      <trkpt lat="43.22433" lon="6.40612">
        <ele>508.19</ele>
        <time>2015-03-02T10:39:06Z</time>
      </trkpt>
      <trkpt lat="43.22419" lon="6.40614">
        <ele>508.19</ele>
        <time>2015-03-02T10:39:20Z</time>
      </trkpt>
      <trkpt lat="43.22422" lon="6.40639">
        <ele>507.71</ele>
        <time>2015-03-02T10:39:37Z</time>
      </trkpt>
      <trkpt lat="43.22432" lon="6.40667">
        <ele>506.27</ele>
        <time>2015-03-02T10:39:57Z</time>
      </trkpt>
      <trkpt lat="43.22434" lon="6.40677">
        <ele>506.75</ele>
        <time>2015-03-02T10:40:03Z</time>
      </trkpt>
      <trkpt lat="43.22441" lon="6.40703">
        <ele>505.31</ele>
        <time>2015-03-02T10:40:20Z</time>
      </trkpt>
      <trkpt lat="43.22442" lon="6.40711">
        <ele>506.75</ele>
        <time>2015-03-02T10:40:28Z</time>
      </trkpt>
      <trkpt lat="43.22443" lon="6.40717">
        <ele>507.23</ele>
        <time>2015-03-02T10:40:33Z</time>
      </trkpt>
      <trkpt lat="43.22442" lon="6.40724">
        <ele>507.23</ele>
        <time>2015-03-02T10:40:38Z</time>
      </trkpt>
      <trkpt lat="43.22434" lon="6.40756">
        <ele>503.87</ele>
        <time>2015-03-02T10:40:59Z</time>
      </trkpt>
      <trkpt lat="43.22427" lon="6.40783">
        <ele>500.5</ele>
        <time>2015-03-02T10:41:18Z</time>
      </trkpt>
      <trkpt lat="43.22423" lon="6.40801">
        <ele>499.54</ele>
        <time>2015-03-02T10:41:33Z</time>
      </trkpt>
      <trkpt lat="43.22426" lon="6.40821">
        <ele>495.7</ele>
        <time>2015-03-02T10:41:47Z</time>
      </trkpt>
      <trkpt lat="43.22429" lon="6.40824">
        <ele>495.7</ele>
        <time>2015-03-02T10:41:51Z</time>
      </trkpt>
      <trkpt lat="43.22432" lon="6.40827">
        <ele>496.18</ele>
        <time>2015-03-02T10:41:55Z</time>
      </trkpt>
      <trkpt lat="43.22449" lon="6.40818">
        <ele>493.77</ele>
        <time>2015-03-02T10:42:14Z</time>
      </trkpt>
      <trkpt lat="43.22467" lon="6.40826">
        <ele>494.74</ele>
        <time>2015-03-02T10:42:31Z</time>
      </trkpt>
      <trkpt lat="43.22473" lon="6.40837">
        <ele>492.33</ele>
        <time>2015-03-02T10:42:41Z</time>
      </trkpt>
      <trkpt lat="43.22488" lon="6.40863">
        <ele>489.93</ele>
        <time>2015-03-02T10:43:00Z</time>
      </trkpt>
      <trkpt lat="43.22499" lon="6.40881">
        <ele>486.56</ele>
        <time>2015-03-02T10:43:16Z</time>
      </trkpt>
      <trkpt lat="43.22513" lon="6.40895">
        <ele>484.64</ele>
        <time>2015-03-02T10:43:34Z</time>
      </trkpt>
      <trkpt lat="43.22529" lon="6.40905">
        <ele>485.12</ele>
        <time>2015-03-02T10:43:50Z</time>
      </trkpt>
      <trkpt lat="43.22548" lon="6.40914">
        <ele>488.97</ele>
        <time>2015-03-02T10:44:06Z</time>
      </trkpt>
      <trkpt lat="43.22555" lon="6.40915">
        <ele>488.49</ele>
        <time>2015-03-02T10:44:13Z</time>
      </trkpt>
      <trkpt lat="43.2256" lon="6.40914">
        <ele>488.49</ele>
        <time>2015-03-02T10:44:18Z</time>
      </trkpt>
      <trkpt lat="43.22582" lon="6.4092">
        <ele>489.45</ele>
        <time>2015-03-02T10:44:37Z</time>
      </trkpt>
      <trkpt lat="43.22588" lon="6.4092">
        <ele>490.41</ele>
        <time>2015-03-02T10:44:52Z</time>
      </trkpt>
      <trkpt lat="43.2259" lon="6.40923">
        <ele>493.29</ele>
        <time>2015-03-02T10:45:17Z</time>
      </trkpt>
      <trkpt lat="43.22596" lon="6.40926">
        <ele>498.58</ele>
        <time>2015-03-02T10:45:43Z</time>
      </trkpt>
      <trkpt lat="43.22601" lon="6.40926">
        <ele>498.58</ele>
        <time>2015-03-02T10:45:47Z</time>
      </trkpt>
      <trkpt lat="43.22619" lon="6.40929">
        <ele>497.62</ele>
        <time>2015-03-02T10:46:03Z</time>
      </trkpt>
      <trkpt lat="43.22628" lon="6.4093">
        <ele>497.62</ele>
        <time>2015-03-02T10:46:19Z</time>
      </trkpt>
      <trkpt lat="43.2263" lon="6.40931">
        <ele>498.1</ele>
        <time>2015-03-02T10:46:48Z</time>
      </trkpt>
      <trkpt lat="43.22634" lon="6.40932">
        <ele>498.58</ele>
        <time>2015-03-02T10:47:05Z</time>
      </trkpt>
      <trkpt lat="43.22633" lon="6.40933">
        <ele>498.1</ele>
        <time>2015-03-02T10:47:35Z</time>
      </trkpt>
      <trkpt lat="43.22634" lon="6.4093">
        <ele>497.62</ele>
        <time>2015-03-02T10:48:02Z</time>
      </trkpt>
      <trkpt lat="43.22634" lon="6.4093">
        <ele>498.1</ele>
        <time>2015-03-02T10:48:20Z</time>
      </trkpt>
      <trkpt lat="43.22644" lon="6.40929">
        <ele>496.18</ele>
        <time>2015-03-02T10:48:33Z</time>
      </trkpt>
      <trkpt lat="43.22646" lon="6.40927">
        <ele>495.7</ele>
        <time>2015-03-02T10:48:36Z</time>
      </trkpt>
      <trkpt lat="43.22662" lon="6.40913">
        <ele>492.81</ele>
        <time>2015-03-02T10:48:54Z</time>
      </trkpt>
      <trkpt lat="43.22678" lon="6.40904">
        <ele>487.53</ele>
        <time>2015-03-02T10:49:09Z</time>
      </trkpt>
      <trkpt lat="43.22685" lon="6.40896">
        <ele>485.6</ele>
        <time>2015-03-02T10:49:18Z</time>
      </trkpt>
      <trkpt lat="43.22688" lon="6.40894">
        <ele>484.64</ele>
        <time>2015-03-02T10:49:21Z</time>
      </trkpt>
      <trkpt lat="43.22701" lon="6.40883">
        <ele>482.72</ele>
        <time>2015-03-02T10:49:35Z</time>
      </trkpt>
      <trkpt lat="43.22706" lon="6.40875">
        <ele>481.76</ele>
        <time>2015-03-02T10:49:42Z</time>
      </trkpt>
      <trkpt lat="43.22708" lon="6.4087">
        <ele>481.76</ele>
        <time>2015-03-02T10:49:45Z</time>
      </trkpt>
      <trkpt lat="43.22704" lon="6.40842">
        <ele>479.84</ele>
        <time>2015-03-02T10:50:03Z</time>
      </trkpt>
      <trkpt lat="43.227" lon="6.40813">
        <ele>475.51</ele>
        <time>2015-03-02T10:50:21Z</time>
      </trkpt>
      <trkpt lat="43.22698" lon="6.4079">
        <ele>470.7</ele>
        <time>2015-03-02T10:50:36Z</time>
      </trkpt>
      <trkpt lat="43.22694" lon="6.40769">
        <ele>470.22</ele>
        <time>2015-03-02T10:50:50Z</time>
      </trkpt>
      <trkpt lat="43.22689" lon="6.40743">
        <ele>469.74</ele>
        <time>2015-03-02T10:51:07Z</time>
      </trkpt>
      <trkpt lat="43.22684" lon="6.40717">
        <ele>468.3</ele>
        <time>2015-03-02T10:51:24Z</time>
      </trkpt>
      <trkpt lat="43.2268" lon="6.40693">
        <ele>465.9</ele>
        <time>2015-03-02T10:51:39Z</time>
      </trkpt>
      <trkpt lat="43.22679" lon="6.40683">
        <ele>465.42</ele>
        <time>2015-03-02T10:51:45Z</time>
      </trkpt>
      <trkpt lat="43.22674" lon="6.40658">
        <ele>464.93</ele>
        <time>2015-03-02T10:52:01Z</time>
      </trkpt>
      <trkpt lat="43.22666" lon="6.40632">
        <ele>463.97</ele>
        <time>2015-03-02T10:52:18Z</time>
      </trkpt>
      <trkpt lat="43.22666" lon="6.40621">
        <ele>463.97</ele>
        <time>2015-03-02T10:52:25Z</time>
      </trkpt>
      <trkpt lat="43.22673" lon="6.40615">
        <ele>466.38</ele>
        <time>2015-03-02T10:52:32Z</time>
      </trkpt>
      <trkpt lat="43.22687" lon="6.40617">
        <ele>467.34</ele>
        <time>2015-03-02T10:52:45Z</time>
      </trkpt>
      <trkpt lat="43.22696" lon="6.40616">
        <ele>466.86</ele>
        <time>2015-03-02T10:52:52Z</time>
      </trkpt>
      <trkpt lat="43.22716" lon="6.40616">
        <ele>465.42</ele>
        <time>2015-03-02T10:53:09Z</time>
      </trkpt>
      <trkpt lat="43.22722" lon="6.40618">
        <ele>465.9</ele>
        <time>2015-03-02T10:53:14Z</time>
      </trkpt>
      <trkpt lat="43.22728" lon="6.4062">
        <ele>466.86</ele>
        <time>2015-03-02T10:53:18Z</time>
      </trkpt>
      <trkpt lat="43.22752" lon="6.4062">
        <ele>468.3</ele>
        <time>2015-03-02T10:53:37Z</time>
      </trkpt>
      <trkpt lat="43.22774" lon="6.40623">
        <ele>464.45</ele>
        <time>2015-03-02T10:53:54Z</time>
      </trkpt>
      <trkpt lat="43.22782" lon="6.40622">
        <ele>464.45</ele>
        <time>2015-03-02T10:53:59Z</time>
      </trkpt>
      <trkpt lat="43.22788" lon="6.40623">
        <ele>464.93</ele>
        <time>2015-03-02T10:54:03Z</time>
      </trkpt>
      <trkpt lat="43.22809" lon="6.40632">
        <ele>463.01</ele>
        <time>2015-03-02T10:54:20Z</time>
      </trkpt>
      <trkpt lat="43.22817" lon="6.40637">
        <ele>462.53</ele>
        <time>2015-03-02T10:54:26Z</time>
      </trkpt>
      <trkpt lat="43.22841" lon="6.40648">
        <ele>463.97</ele>
        <time>2015-03-02T10:54:44Z</time>
      </trkpt>
      <trkpt lat="43.22857" lon="6.40657">
        <ele>462.05</ele>
        <time>2015-03-02T10:54:58Z</time>
      </trkpt>
      <trkpt lat="43.22873" lon="6.40663">
        <ele>461.57</ele>
        <time>2015-03-02T10:55:12Z</time>
      </trkpt>
      <trkpt lat="43.2289" lon="6.40671">
        <ele>459.65</ele>
        <time>2015-03-02T10:55:25Z</time>
      </trkpt>
      <trkpt lat="43.22907" lon="6.40679">
        <ele>459.17</ele>
        <time>2015-03-02T10:55:38Z</time>
      </trkpt>
      <trkpt lat="43.22909" lon="6.4068">
        <ele>459.17</ele>
        <time>2015-03-02T10:55:39Z</time>
      </trkpt>
      <trkpt lat="43.22924" lon="6.40693">
        <ele>454.84</ele>
        <time>2015-03-02T10:55:54Z</time>
      </trkpt>
      <trkpt lat="43.2294" lon="6.40702">
        <ele>456.28</ele>
        <time>2015-03-02T10:56:06Z</time>
      </trkpt>
      <trkpt lat="43.22947" lon="6.40701">
        <ele>456.28</ele>
        <time>2015-03-02T10:56:12Z</time>
      </trkpt>
      <trkpt lat="43.22952" lon="6.40697">
        <ele>456.28</ele>
        <time>2015-03-02T10:56:16Z</time>
      </trkpt>
      <trkpt lat="43.22956" lon="6.40689">
        <ele>455.32</ele>
        <time>2015-03-02T10:56:21Z</time>
      </trkpt>
      <trkpt lat="43.22967" lon="6.40663">
        <ele>449.55</ele>
        <time>2015-03-02T10:56:40Z</time>
      </trkpt>
      <trkpt lat="43.22974" lon="6.4064">
        <ele>448.59</ele>
        <time>2015-03-02T10:56:54Z</time>
      </trkpt>
      <trkpt lat="43.22979" lon="6.40611">
        <ele>442.34</ele>
        <time>2015-03-02T10:57:12Z</time>
      </trkpt>
      <trkpt lat="43.22979" lon="6.4059">
        <ele>438.02</ele>
        <time>2015-03-02T10:57:27Z</time>
      </trkpt>
      <trkpt lat="43.2298" lon="6.40568">
        <ele>433.69</ele>
        <time>2015-03-02T10:57:42Z</time>
      </trkpt>
      <trkpt lat="43.22983" lon="6.40541">
        <ele>429.85</ele>
        <time>2015-03-02T10:57:59Z</time>
      </trkpt>
      <trkpt lat="43.22982" lon="6.40515">
        <ele>427.92</ele>
        <time>2015-03-02T10:58:13Z</time>
      </trkpt>
      <trkpt lat="43.23" lon="6.40507">
        <ele>450.03</ele>
        <time>2015-03-02T10:58:27Z</time>
      </trkpt>
      <trkpt lat="43.23009" lon="6.40517">
        <ele>451.96</ele>
        <time>2015-03-02T10:58:38Z</time>
      </trkpt>
      <trkpt lat="43.23026" lon="6.40541">
        <ele>454.36</ele>
        <time>2015-03-02T10:58:54Z</time>
      </trkpt>
      <trkpt lat="43.23034" lon="6.40552">
        <ele>453.4</ele>
        <time>2015-03-02T10:59:04Z</time>
      </trkpt>
      <trkpt lat="43.23047" lon="6.40569">
        <ele>449.55</ele>
        <time>2015-03-02T10:59:18Z</time>
      </trkpt>
      <trkpt lat="43.23057" lon="6.40592">
        <ele>447.63</ele>
        <time>2015-03-02T10:59:33Z</time>
      </trkpt>
      <trkpt lat="43.2307" lon="6.4062">
        <ele>448.11</ele>
        <time>2015-03-02T10:59:50Z</time>
      </trkpt>
      <trkpt lat="43.23084" lon="6.4064">
        <ele>449.07</ele>
        <time>2015-03-02T11:00:04Z</time>
      </trkpt>
      <trkpt lat="43.23099" lon="6.40655">
        <ele>449.55</ele>
        <time>2015-03-02T11:00:19Z</time>
      </trkpt>
      <trkpt lat="43.23107" lon="6.40662">
        <ele>450.03</ele>
        <time>2015-03-02T11:00:26Z</time>
      </trkpt>
      <trkpt lat="43.23123" lon="6.40675">
        <ele>448.59</ele>
        <time>2015-03-02T11:00:41Z</time>
      </trkpt>
      <trkpt lat="43.23126" lon="6.40678">
        <ele>448.59</ele>
        <time>2015-03-02T11:00:44Z</time>
      </trkpt>
      <trkpt lat="43.23143" lon="6.40688">
        <ele>449.55</ele>
        <time>2015-03-02T11:00:59Z</time>
      </trkpt>
      <trkpt lat="43.23159" lon="6.407">
        <ele>448.59</ele>
        <time>2015-03-02T11:01:14Z</time>
      </trkpt>
      <trkpt lat="43.23177" lon="6.40712">
        <ele>448.11</ele>
        <time>2015-03-02T11:01:29Z</time>
      </trkpt>
      <trkpt lat="43.23199" lon="6.40731">
        <ele>448.11</ele>
        <time>2015-03-02T11:01:47Z</time>
      </trkpt>
      <trkpt lat="43.2321" lon="6.4074">
        <ele>447.15</ele>
        <time>2015-03-02T11:01:57Z</time>
      </trkpt>
      <trkpt lat="43.23217" lon="6.40746">
        <ele>447.15</ele>
        <time>2015-03-02T11:02:05Z</time>
      </trkpt>
      <trkpt lat="43.23221" lon="6.40752">
        <ele>446.67</ele>
        <time>2015-03-02T11:02:10Z</time>
      </trkpt>
      <trkpt lat="43.23226" lon="6.40753">
        <ele>446.19</ele>
        <time>2015-03-02T11:02:14Z</time>
      </trkpt>
      <trkpt lat="43.23238" lon="6.40767">
        <ele>441.38</ele>
        <time>2015-03-02T11:02:29Z</time>
      </trkpt>
      <trkpt lat="43.23249" lon="6.40776">
        <ele>434.17</ele>
        <time>2015-03-02T11:02:43Z</time>
      </trkpt>
      <trkpt lat="43.23259" lon="6.40788">
        <ele>429.37</ele>
        <time>2015-03-02T11:02:56Z</time>
      </trkpt>
      <trkpt lat="43.23268" lon="6.40806">
        <ele>426.96</ele>
        <time>2015-03-02T11:03:10Z</time>
      </trkpt>
      <trkpt lat="43.23276" lon="6.40827">
        <ele>426.48</ele>
        <time>2015-03-02T11:03:25Z</time>
      </trkpt>
      <trkpt lat="43.23284" lon="6.40855">
        <ele>431.29</ele>
        <time>2015-03-02T11:03:40Z</time>
      </trkpt>
      <trkpt lat="43.23291" lon="6.40875">
        <ele>434.17</ele>
        <time>2015-03-02T11:03:53Z</time>
      </trkpt>
      <trkpt lat="43.23303" lon="6.40892">
        <ele>436.1</ele>
        <time>2015-03-02T11:04:06Z</time>
      </trkpt>
      <trkpt lat="43.23315" lon="6.40908">
        <ele>436.58</ele>
        <time>2015-03-02T11:04:21Z</time>
      </trkpt>
      <trkpt lat="43.23326" lon="6.40918">
        <ele>435.13</ele>
        <time>2015-03-02T11:04:34Z</time>
      </trkpt>
      <trkpt lat="43.23332" lon="6.40924">
        <ele>433.69</ele>
        <time>2015-03-02T11:04:42Z</time>
      </trkpt>
      <trkpt lat="43.2336" lon="6.40933">
        <ele>437.06</ele>
        <time>2015-03-02T11:05:00Z</time>
      </trkpt>
      <trkpt lat="43.23364" lon="6.40932">
        <ele>438.02</ele>
        <time>2015-03-02T11:05:05Z</time>
      </trkpt>
      <trkpt lat="43.23379" lon="6.40919">
        <ele>436.58</ele>
        <time>2015-03-02T11:05:21Z</time>
      </trkpt>
      <trkpt lat="43.23396" lon="6.40907">
        <ele>437.54</ele>
        <time>2015-03-02T11:05:38Z</time>
      </trkpt>
      <trkpt lat="43.23409" lon="6.40896">
        <ele>434.17</ele>
        <time>2015-03-02T11:05:53Z</time>
      </trkpt>
      <trkpt lat="43.23423" lon="6.40885">
        <ele>433.69</ele>
        <time>2015-03-02T11:06:09Z</time>
      </trkpt>
      <trkpt lat="43.23428" lon="6.40881">
        <ele>435.61</ele>
        <time>2015-03-02T11:06:15Z</time>
      </trkpt>
      <trkpt lat="43.23442" lon="6.40867">
        <ele>437.54</ele>
        <time>2015-03-02T11:06:33Z</time>
      </trkpt>
      <trkpt lat="43.23448" lon="6.40849">
        <ele>434.65</ele>
        <time>2015-03-02T11:06:49Z</time>
      </trkpt>
      <trkpt lat="43.23448" lon="6.40838">
        <ele>434.17</ele>
        <time>2015-03-02T11:06:56Z</time>
      </trkpt>
      <trkpt lat="43.23449" lon="6.40835">
        <ele>434.17</ele>
        <time>2015-03-02T11:06:58Z</time>
      </trkpt>
      <trkpt lat="43.23451" lon="6.40829">
        <ele>432.73</ele>
        <time>2015-03-02T11:07:11Z</time>
      </trkpt>
      <trkpt lat="43.2345" lon="6.40827">
        <ele>433.69</ele>
        <time>2015-03-02T11:07:31Z</time>
      </trkpt>
      <trkpt lat="43.23448" lon="6.40822">
        <ele>433.69</ele>
        <time>2015-03-02T11:07:35Z</time>
      </trkpt>
      <trkpt lat="43.23439" lon="6.40798">
        <ele>433.21</ele>
        <time>2015-03-02T11:07:51Z</time>
      </trkpt>
      <trkpt lat="43.23433" lon="6.40776">
        <ele>433.21</ele>
        <time>2015-03-02T11:08:04Z</time>
      </trkpt>
      <trkpt lat="43.23419" lon="6.40753">
        <ele>429.85</ele>
        <time>2015-03-02T11:08:21Z</time>
      </trkpt>
      <trkpt lat="43.23405" lon="6.40733">
        <ele>425.04</ele>
        <time>2015-03-02T11:08:38Z</time>
      </trkpt>
      <trkpt lat="43.23391" lon="6.4072">
        <ele>418.79</ele>
        <time>2015-03-02T11:08:53Z</time>
      </trkpt>
      <trkpt lat="43.23374" lon="6.40705">
        <ele>415.43</ele>
        <time>2015-03-02T11:09:09Z</time>
      </trkpt>
      <trkpt lat="43.23357" lon="6.40696">
        <ele>411.58</ele>
        <time>2015-03-02T11:09:26Z</time>
      </trkpt>
      <trkpt lat="43.23343" lon="6.40691">
        <ele>411.58</ele>
        <time>2015-03-02T11:09:40Z</time>
      </trkpt>
      <trkpt lat="43.23331" lon="6.40674">
        <ele>413.98</ele>
        <time>2015-03-02T11:09:55Z</time>
      </trkpt>
      <trkpt lat="43.23322" lon="6.40652">
        <ele>418.79</ele>
        <time>2015-03-02T11:10:10Z</time>
      </trkpt>
      <trkpt lat="43.23319" lon="6.40627">
        <ele>420.23</ele>
        <time>2015-03-02T11:10:24Z</time>
      </trkpt>
      <trkpt lat="43.23317" lon="6.40603">
        <ele>421.68</ele>
        <time>2015-03-02T11:10:39Z</time>
      </trkpt>
      <trkpt lat="43.23313" lon="6.40579">
        <ele>424.08</ele>
        <time>2015-03-02T11:10:54Z</time>
      </trkpt>
      <trkpt lat="43.23309" lon="6.40558">
        <ele>420.71</ele>
        <time>2015-03-02T11:11:10Z</time>
      </trkpt>
      <trkpt lat="43.23306" lon="6.40536">
        <ele>413.98</ele>
        <time>2015-03-02T11:11:26Z</time>
      </trkpt>
      <trkpt lat="43.23306" lon="6.40516">
        <ele>406.77</ele>
        <time>2015-03-02T11:11:39Z</time>
      </trkpt>
      <trkpt lat="43.23311" lon="6.40493">
        <ele>401.97</ele>
        <time>2015-03-02T11:11:55Z</time>
      </trkpt>
      <trkpt lat="43.23319" lon="6.4047">
        <ele>404.85</ele>
        <time>2015-03-02T11:12:10Z</time>
      </trkpt>
      <trkpt lat="43.23328" lon="6.40449">
        <ele>406.77</ele>
        <time>2015-03-02T11:12:25Z</time>
      </trkpt>
      <trkpt lat="43.23332" lon="6.40441">
        <ele>406.29</ele>
        <time>2015-03-02T11:12:31Z</time>
      </trkpt>
      <trkpt lat="43.23337" lon="6.40421">
        <ele>401.49</ele>
        <time>2015-03-02T11:12:47Z</time>
      </trkpt>
      <trkpt lat="43.23341" lon="6.40403">
        <ele>393.32</ele>
        <time>2015-03-02T11:13:01Z</time>
      </trkpt>
      <trkpt lat="43.23342" lon="6.40389">
        <ele>388.99</ele>
        <time>2015-03-02T11:13:11Z</time>
      </trkpt>
      <trkpt lat="43.23343" lon="6.40369">
        <ele>387.55</ele>
        <time>2015-03-02T11:13:24Z</time>
      </trkpt>
      <trkpt lat="43.23342" lon="6.40352">
        <ele>386.59</ele>
        <time>2015-03-02T11:13:35Z</time>
      </trkpt>
      <trkpt lat="43.2334" lon="6.40324">
        <ele>385.63</ele>
        <time>2015-03-02T11:13:52Z</time>
      </trkpt>
      <trkpt lat="43.23341" lon="6.40303">
        <ele>382.74</ele>
        <time>2015-03-02T11:14:08Z</time>
      </trkpt>
      <trkpt lat="43.23347" lon="6.40289">
        <ele>390.91</ele>
        <time>2015-03-02T11:14:23Z</time>
      </trkpt>
      <trkpt lat="43.23347" lon="6.40272">
        <ele>396.2</ele>
        <time>2015-03-02T11:14:41Z</time>
      </trkpt>
      <trkpt lat="43.23345" lon="6.40263">
        <ele>385.63</ele>
        <time>2015-03-02T11:14:52Z</time>
      </trkpt>
      <trkpt lat="43.23346" lon="6.40255">
        <ele>383.22</ele>
        <time>2015-03-02T11:14:56Z</time>
      </trkpt>
      <trkpt lat="43.23342" lon="6.40208">
        <ele>388.99</ele>
        <time>2015-03-02T11:15:12Z</time>
      </trkpt>
      <trkpt lat="43.23351" lon="6.40196">
        <ele>391.87</ele>
        <time>2015-03-02T11:15:22Z</time>
      </trkpt>
      <trkpt lat="43.23375" lon="6.40185">
        <ele>394.76</ele>
        <time>2015-03-02T11:15:38Z</time>
      </trkpt>
      <trkpt lat="43.23394" lon="6.40177">
        <ele>398.12</ele>
        <time>2015-03-02T11:15:53Z</time>
      </trkpt>
      <trkpt lat="43.23415" lon="6.4017">
        <ele>401.01</ele>
        <time>2015-03-02T11:16:09Z</time>
      </trkpt>
      <trkpt lat="43.23436" lon="6.40156">
        <ele>403.41</ele>
        <time>2015-03-02T11:16:27Z</time>
      </trkpt>
      <trkpt lat="43.23453" lon="6.4015">
        <ele>404.85</ele>
        <time>2015-03-02T11:16:42Z</time>
      </trkpt>
      <trkpt lat="43.23476" lon="6.40148">
        <ele>412.06</ele>
        <time>2015-03-02T11:17:00Z</time>
      </trkpt>
      <trkpt lat="43.23482" lon="6.40149">
        <ele>414.95</ele>
        <time>2015-03-02T11:17:24Z</time>
      </trkpt>
      <trkpt lat="43.23483" lon="6.4015">
        <ele>415.43</ele>
        <time>2015-03-02T11:17:41Z</time>
      </trkpt>
      <trkpt lat="43.23486" lon="6.40152">
        <ele>417.35</ele>
        <time>2015-03-02T11:18:04Z</time>
      </trkpt>
      <trkpt lat="43.2349" lon="6.40155">
        <ele>417.35</ele>
        <time>2015-03-02T11:18:41Z</time>
      </trkpt>
      <trkpt lat="43.2349" lon="6.4016">
        <ele>423.12</ele>
        <time>2015-03-02T11:19:11Z</time>
      </trkpt>
      <trkpt lat="43.2349" lon="6.40156">
        <ele>427.92</ele>
        <time>2015-03-02T11:19:40Z</time>
      </trkpt>
      <trkpt lat="43.23486" lon="6.40158">
        <ele>425.04</ele>
        <time>2015-03-02T11:20:14Z</time>
      </trkpt>
      <trkpt lat="43.23492" lon="6.40159">
        <ele>423.12</ele>
        <time>2015-03-02T11:20:35Z</time>
      </trkpt>
      <trkpt lat="43.23494" lon="6.40156">
        <ele>422.64</ele>
        <time>2015-03-02T11:20:37Z</time>
      </trkpt>
      <trkpt lat="43.23503" lon="6.40138">
        <ele>423.6</ele>
        <time>2015-03-02T11:20:52Z</time>
      </trkpt>
      <trkpt lat="43.23505" lon="6.40125">
        <ele>423.12</ele>
        <time>2015-03-02T11:21:02Z</time>
      </trkpt>
      <trkpt lat="43.23506" lon="6.40098">
        <ele>421.19</ele>
        <time>2015-03-02T11:21:20Z</time>
      </trkpt>
      <trkpt lat="43.23503" lon="6.40068">
        <ele>422.64</ele>
        <time>2015-03-02T11:21:36Z</time>
      </trkpt>
      <trkpt lat="43.23491" lon="6.40036">
        <ele>422.64</ele>
        <time>2015-03-02T11:21:55Z</time>
      </trkpt>
      <trkpt lat="43.23491" lon="6.40035">
        <ele>422.64</ele>
        <time>2015-03-02T11:21:56Z</time>
      </trkpt>
      <trkpt lat="43.2348" lon="6.40008">
        <ele>422.64</ele>
        <time>2015-03-02T11:22:14Z</time>
      </trkpt>
      <trkpt lat="43.23471" lon="6.39984">
        <ele>420.23</ele>
        <time>2015-03-02T11:22:31Z</time>
      </trkpt>
      <trkpt lat="43.23462" lon="6.39964">
        <ele>416.39</ele>
        <time>2015-03-02T11:22:45Z</time>
      </trkpt>
      <trkpt lat="43.23456" lon="6.39954">
        <ele>411.58</ele>
        <time>2015-03-02T11:22:55Z</time>
      </trkpt>
      <trkpt lat="43.23446" lon="6.39942">
        <ele>409.18</ele>
        <time>2015-03-02T11:23:08Z</time>
      </trkpt>
      <trkpt lat="43.23447" lon="6.39918">
        <ele>405.33</ele>
        <time>2015-03-02T11:23:23Z</time>
      </trkpt>
      <trkpt lat="43.23454" lon="6.39895">
        <ele>401.49</ele>
        <time>2015-03-02T11:23:37Z</time>
      </trkpt>
      <trkpt lat="43.23458" lon="6.39889">
        <ele>401.01</ele>
        <time>2015-03-02T11:23:42Z</time>
      </trkpt>
      <trkpt lat="43.23469" lon="6.39877">
        <ele>402.45</ele>
        <time>2015-03-02T11:23:53Z</time>
      </trkpt>
      <trkpt lat="43.23478" lon="6.39859">
        <ele>401.97</ele>
        <time>2015-03-02T11:24:06Z</time>
      </trkpt>
      <trkpt lat="43.23477" lon="6.39836">
        <ele>396.2</ele>
        <time>2015-03-02T11:24:22Z</time>
      </trkpt>
      <trkpt lat="43.23475" lon="6.39813">
        <ele>383.7</ele>
        <time>2015-03-02T11:24:39Z</time>
      </trkpt>
      <trkpt lat="43.23477" lon="6.39796">
        <ele>373.61</ele>
        <time>2015-03-02T11:24:52Z</time>
      </trkpt>
      <trkpt lat="43.23484" lon="6.39789">
        <ele>376.01</ele>
        <time>2015-03-02T11:25:03Z</time>
      </trkpt>
      <trkpt lat="43.23492" lon="6.39798">
        <ele>378.42</ele>
        <time>2015-03-02T11:25:17Z</time>
      </trkpt>
      <trkpt lat="43.2351" lon="6.39812">
        <ele>386.59</ele>
        <time>2015-03-02T11:25:32Z</time>
      </trkpt>
      <trkpt lat="43.23523" lon="6.39822">
        <ele>390.43</ele>
        <time>2015-03-02T11:25:42Z</time>
      </trkpt>
      <trkpt lat="43.23547" lon="6.3984">
        <ele>399.08</ele>
        <time>2015-03-02T11:25:58Z</time>
      </trkpt>
      <trkpt lat="43.23557" lon="6.39853">
        <ele>399.08</ele>
        <time>2015-03-02T11:26:11Z</time>
      </trkpt>
      <trkpt lat="43.23575" lon="6.39869">
        <ele>403.89</ele>
        <time>2015-03-02T11:26:26Z</time>
      </trkpt>
      <trkpt lat="43.23583" lon="6.3987">
        <ele>405.33</ele>
        <time>2015-03-02T11:26:34Z</time>
      </trkpt>
      <trkpt lat="43.23595" lon="6.3986">
        <ele>402.93</ele>
        <time>2015-03-02T11:26:46Z</time>
      </trkpt>
      <trkpt lat="43.23599" lon="6.39855">
        <ele>401.49</ele>
        <time>2015-03-02T11:26:50Z</time>
      </trkpt>
      <trkpt lat="43.23609" lon="6.39836">
        <ele>394.28</ele>
        <time>2015-03-02T11:27:03Z</time>
      </trkpt>
      <trkpt lat="43.23616" lon="6.39816">
        <ele>390.43</ele>
        <time>2015-03-02T11:27:17Z</time>
      </trkpt>
      <trkpt lat="43.23624" lon="6.398">
        <ele>388.99</ele>
        <time>2015-03-02T11:27:32Z</time>
      </trkpt>
      <trkpt lat="43.2364" lon="6.39785">
        <ele>391.87</ele>
        <time>2015-03-02T11:27:46Z</time>
      </trkpt>
      <trkpt lat="43.23664" lon="6.39769">
        <ele>399.57</ele>
        <time>2015-03-02T11:28:04Z</time>
      </trkpt>
      <trkpt lat="43.23683" lon="6.39758">
        <ele>408.22</ele>
        <time>2015-03-02T11:28:17Z</time>
      </trkpt>
      <trkpt lat="43.23688" lon="6.39755">
        <ele>408.7</ele>
        <time>2015-03-02T11:28:20Z</time>
      </trkpt>
      <trkpt lat="43.23693" lon="6.39753">
        <ele>408.22</ele>
        <time>2015-03-02T11:28:23Z</time>
      </trkpt>
      <trkpt lat="43.23706" lon="6.39734">
        <ele>409.18</ele>
        <time>2015-03-02T11:28:38Z</time>
      </trkpt>
      <trkpt lat="43.23707" lon="6.39733">
        <ele>409.18</ele>
        <time>2015-03-02T11:28:39Z</time>
      </trkpt>
      <trkpt lat="43.23721" lon="6.39715">
        <ele>409.18</ele>
        <time>2015-03-02T11:28:54Z</time>
      </trkpt>
      <trkpt lat="43.23739" lon="6.39698">
        <ele>411.58</ele>
        <time>2015-03-02T11:29:10Z</time>
      </trkpt>
      <trkpt lat="43.23755" lon="6.39689">
        <ele>414.47</ele>
        <time>2015-03-02T11:29:24Z</time>
      </trkpt>
      <trkpt lat="43.23773" lon="6.3969">
        <ele>417.35</ele>
        <time>2015-03-02T11:29:37Z</time>
      </trkpt>
      <trkpt lat="43.23785" lon="6.39665">
        <ele>415.91</ele>
        <time>2015-03-02T11:29:53Z</time>
      </trkpt>
      <trkpt lat="43.23787" lon="6.39633">
        <ele>417.83</ele>
        <time>2015-03-02T11:30:13Z</time>
      </trkpt>
      <trkpt lat="43.23786" lon="6.39628">
        <ele>418.79</ele>
        <time>2015-03-02T11:30:30Z</time>
      </trkpt>
      <trkpt lat="43.23785" lon="6.39626">
        <ele>420.71</ele>
        <time>2015-03-02T11:30:52Z</time>
      </trkpt>
      <trkpt lat="43.23785" lon="6.39626">
        <ele>424.08</ele>
        <time>2015-03-02T11:31:14Z</time>
      </trkpt>
      <trkpt lat="43.23785" lon="6.39627">
        <ele>425.52</ele>
        <time>2015-03-02T11:31:31Z</time>
      </trkpt>
      <trkpt lat="43.23786" lon="6.39627">
        <ele>426.96</ele>
        <time>2015-03-02T11:31:49Z</time>
      </trkpt>
      <trkpt lat="43.23789" lon="6.39622">
        <ele>427.92</ele>
        <time>2015-03-02T11:32:09Z</time>
      </trkpt>
      <trkpt lat="43.23787" lon="6.39606">
        <ele>425.52</ele>
        <time>2015-03-02T11:32:20Z</time>
      </trkpt>
      <trkpt lat="43.23787" lon="6.39605">
        <ele>425.04</ele>
        <time>2015-03-02T11:32:36Z</time>
      </trkpt>
      <trkpt lat="43.2379" lon="6.39605">
        <ele>424.56</ele>
        <time>2015-03-02T11:33:05Z</time>
      </trkpt>
      <trkpt lat="43.2379" lon="6.39605">
        <ele>425.04</ele>
        <time>2015-03-02T11:33:06Z</time>
      </trkpt>
      <trkpt lat="43.23791" lon="6.39626">
        <ele>424.08</ele>
        <time>2015-03-02T11:33:21Z</time>
      </trkpt>
      <trkpt lat="43.23789" lon="6.39647">
        <ele>424.08</ele>
        <time>2015-03-02T11:33:34Z</time>
      </trkpt>
      <trkpt lat="43.23787" lon="6.39655">
        <ele>425.04</ele>
        <time>2015-03-02T11:33:53Z</time>
      </trkpt>
      <trkpt lat="43.23786" lon="6.39673">
        <ele>423.12</ele>
        <time>2015-03-02T11:34:08Z</time>
      </trkpt>
      <trkpt lat="43.23776" lon="6.39692">
        <ele>423.6</ele>
        <time>2015-03-02T11:34:24Z</time>
      </trkpt>
      <trkpt lat="43.23769" lon="6.39689">
        <ele>422.16</ele>
        <time>2015-03-02T11:34:32Z</time>
      </trkpt>
      <trkpt lat="43.23753" lon="6.39699">
        <ele>421.19</ele>
        <time>2015-03-02T11:34:47Z</time>
      </trkpt>
      <trkpt lat="43.23742" lon="6.39705">
        <ele>423.12</ele>
        <time>2015-03-02T11:35:00Z</time>
      </trkpt>
      <trkpt lat="43.23732" lon="6.39715">
        <ele>424.08</ele>
        <time>2015-03-02T11:35:14Z</time>
      </trkpt>
      <trkpt lat="43.23722" lon="6.39726">
        <ele>421.68</ele>
        <time>2015-03-02T11:35:26Z</time>
      </trkpt>
      <trkpt lat="43.23713" lon="6.39741">
        <ele>422.16</ele>
        <time>2015-03-02T11:35:40Z</time>
      </trkpt>
      <trkpt lat="43.23699" lon="6.3976">
        <ele>420.71</ele>
        <time>2015-03-02T11:35:56Z</time>
      </trkpt>
      <trkpt lat="43.23681" lon="6.39774">
        <ele>419.75</ele>
        <time>2015-03-02T11:36:12Z</time>
      </trkpt>
      <trkpt lat="43.23667" lon="6.39788">
        <ele>423.12</ele>
        <time>2015-03-02T11:36:26Z</time>
      </trkpt>
      <trkpt lat="43.23659" lon="6.39797">
        <ele>425.52</ele>
        <time>2015-03-02T11:36:35Z</time>
      </trkpt>
      <trkpt lat="43.23652" lon="6.39804">
        <ele>426.96</ele>
        <time>2015-03-02T11:36:42Z</time>
      </trkpt>
      <trkpt lat="43.23639" lon="6.39814">
        <ele>427.44</ele>
        <time>2015-03-02T11:36:56Z</time>
      </trkpt>
      <trkpt lat="43.23629" lon="6.3983">
        <ele>427.44</ele>
        <time>2015-03-02T11:37:10Z</time>
      </trkpt>
      <trkpt lat="43.23615" lon="6.39852">
        <ele>426.96</ele>
        <time>2015-03-02T11:37:23Z</time>
      </trkpt>
      <trkpt lat="43.236" lon="6.39866">
        <ele>424.56</ele>
        <time>2015-03-02T11:37:38Z</time>
      </trkpt>
      <trkpt lat="43.23593" lon="6.39865">
        <ele>420.71</ele>
        <time>2015-03-02T11:37:43Z</time>
      </trkpt>
      <trkpt lat="43.23582" lon="6.39859">
        <ele>414.47</ele>
        <time>2015-03-02T11:37:57Z</time>
      </trkpt>
      <trkpt lat="43.23573" lon="6.39852">
        <ele>409.66</ele>
        <time>2015-03-02T11:38:08Z</time>
      </trkpt>
      <trkpt lat="43.23559" lon="6.39843">
        <ele>404.85</ele>
        <time>2015-03-02T11:38:25Z</time>
      </trkpt>
      <trkpt lat="43.23552" lon="6.39836">
        <ele>403.41</ele>
        <time>2015-03-02T11:38:36Z</time>
      </trkpt>
      <trkpt lat="43.23532" lon="6.39819">
        <ele>404.37</ele>
        <time>2015-03-02T11:38:52Z</time>
      </trkpt>
      <trkpt lat="43.23514" lon="6.39805">
        <ele>398.6</ele>
        <time>2015-03-02T11:39:07Z</time>
      </trkpt>
      <trkpt lat="43.235" lon="6.3979">
        <ele>392.84</ele>
        <time>2015-03-02T11:39:22Z</time>
      </trkpt>
      <trkpt lat="43.23484" lon="6.39787">
        <ele>396.68</ele>
        <time>2015-03-02T11:39:36Z</time>
      </trkpt>
      <trkpt lat="43.2348" lon="6.39792">
        <ele>400.05</ele>
        <time>2015-03-02T11:39:41Z</time>
      </trkpt>
      <trkpt lat="43.23476" lon="6.39814">
        <ele>404.85</ele>
        <time>2015-03-02T11:39:57Z</time>
      </trkpt>
      <trkpt lat="43.23477" lon="6.3984">
        <ele>409.66</ele>
        <time>2015-03-02T11:40:13Z</time>
      </trkpt>
      <trkpt lat="43.2348" lon="6.39855">
        <ele>411.1</ele>
        <time>2015-03-02T11:40:23Z</time>
      </trkpt>
      <trkpt lat="43.23478" lon="6.39863">
        <ele>411.58</ele>
        <time>2015-03-02T11:40:28Z</time>
      </trkpt>
      <trkpt lat="43.23466" lon="6.3988">
        <ele>412.06</ele>
        <time>2015-03-02T11:40:42Z</time>
      </trkpt>
      <trkpt lat="43.23456" lon="6.39894">
        <ele>412.54</ele>
        <time>2015-03-02T11:40:55Z</time>
      </trkpt>
      <trkpt lat="43.23445" lon="6.39907">
        <ele>411.1</ele>
        <time>2015-03-02T11:41:08Z</time>
      </trkpt>
      <trkpt lat="43.23444" lon="6.3991">
        <ele>411.1</ele>
        <time>2015-03-02T11:41:11Z</time>
      </trkpt>
      <trkpt lat="43.23438" lon="6.39924">
        <ele>413.5</ele>
        <time>2015-03-02T11:41:25Z</time>
      </trkpt>
      <trkpt lat="43.23443" lon="6.39946">
        <ele>418.31</ele>
        <time>2015-03-02T11:41:39Z</time>
      </trkpt>
      <trkpt lat="43.23454" lon="6.39964">
        <ele>415.43</ele>
        <time>2015-03-02T11:41:57Z</time>
      </trkpt>
      <trkpt lat="43.23462" lon="6.39987">
        <ele>414.95</ele>
        <time>2015-03-02T11:42:12Z</time>
      </trkpt>
      <trkpt lat="43.23463" lon="6.3999">
        <ele>415.43</ele>
        <time>2015-03-02T11:42:14Z</time>
      </trkpt>
      <trkpt lat="43.23471" lon="6.40012">
        <ele>414.95</ele>
        <time>2015-03-02T11:42:28Z</time>
      </trkpt>
      <trkpt lat="43.23476" lon="6.40034">
        <ele>412.54</ele>
        <time>2015-03-02T11:42:44Z</time>
      </trkpt>
      <trkpt lat="43.23489" lon="6.40059">
        <ele>412.54</ele>
        <time>2015-03-02T11:43:01Z</time>
      </trkpt>
      <trkpt lat="43.23493" lon="6.4007">
        <ele>414.95</ele>
        <time>2015-03-02T11:43:09Z</time>
      </trkpt>
      <trkpt lat="43.23502" lon="6.40099">
        <ele>418.31</ele>
        <time>2015-03-02T11:43:27Z</time>
      </trkpt>
      <trkpt lat="43.23503" lon="6.40122">
        <ele>416.87</ele>
        <time>2015-03-02T11:43:42Z</time>
      </trkpt>
      <trkpt lat="43.23501" lon="6.40137">
        <ele>417.35</ele>
        <time>2015-03-02T11:43:52Z</time>
      </trkpt>
      <trkpt lat="43.23499" lon="6.4014">
        <ele>417.83</ele>
        <time>2015-03-02T11:43:54Z</time>
      </trkpt>
      <trkpt lat="43.23488" lon="6.40149">
        <ele>416.87</ele>
        <time>2015-03-02T11:44:10Z</time>
      </trkpt>
      <trkpt lat="43.23479" lon="6.40156">
        <ele>420.23</ele>
        <time>2015-03-02T11:44:20Z</time>
      </trkpt>
      <trkpt lat="43.23464" lon="6.40176">
        <ele>427.92</ele>
        <time>2015-03-02T11:44:34Z</time>
      </trkpt>
      <trkpt lat="43.23454" lon="6.40191">
        <ele>431.29</ele>
        <time>2015-03-02T11:44:46Z</time>
      </trkpt>
      <trkpt lat="43.23452" lon="6.40193">
        <ele>431.77</ele>
        <time>2015-03-02T11:44:48Z</time>
      </trkpt>
      <trkpt lat="43.23445" lon="6.40201">
        <ele>432.25</ele>
        <time>2015-03-02T11:44:55Z</time>
      </trkpt>
      <trkpt lat="43.23432" lon="6.40215">
        <ele>432.25</ele>
        <time>2015-03-02T11:45:09Z</time>
      </trkpt>
      <trkpt lat="43.2342" lon="6.40222">
        <ele>425.52</ele>
        <time>2015-03-02T11:45:22Z</time>
      </trkpt>
      <trkpt lat="43.23412" lon="6.40232">
        <ele>424.08</ele>
        <time>2015-03-02T11:45:32Z</time>
      </trkpt>
      <trkpt lat="43.23402" lon="6.40243">
        <ele>423.6</ele>
        <time>2015-03-02T11:45:45Z</time>
      </trkpt>
      <trkpt lat="43.23398" lon="6.40247">
        <ele>421.68</ele>
        <time>2015-03-02T11:46:02Z</time>
      </trkpt>
      <trkpt lat="43.23398" lon="6.40235">
        <ele>416.87</ele>
        <time>2015-03-02T11:46:18Z</time>
      </trkpt>
      <trkpt lat="43.23402" lon="6.40234">
        <ele>417.35</ele>
        <time>2015-03-02T11:46:44Z</time>
      </trkpt>
      <trkpt lat="43.23404" lon="6.40238">
        <ele>420.23</ele>
        <time>2015-03-02T11:47:20Z</time>
      </trkpt>
      <trkpt lat="43.23408" lon="6.40237">
        <ele>420.23</ele>
        <time>2015-03-02T11:47:45Z</time>
      </trkpt>
      <trkpt lat="43.23407" lon="6.40241">
        <ele>418.79</ele>
        <time>2015-03-02T11:48:01Z</time>
      </trkpt>
      <trkpt lat="43.23396" lon="6.40249">
        <ele>413.5</ele>
        <time>2015-03-02T11:48:29Z</time>
      </trkpt>
      <trkpt lat="43.23399" lon="6.40242">
        <ele>411.1</ele>
        <time>2015-03-02T11:48:55Z</time>
      </trkpt>
      <trkpt lat="43.23407" lon="6.40236">
        <ele>407.74</ele>
        <time>2015-03-02T11:49:18Z</time>
      </trkpt>
      <trkpt lat="43.23408" lon="6.40238">
        <ele>411.58</ele>
        <time>2015-03-02T11:49:47Z</time>
      </trkpt>
      <trkpt lat="43.23405" lon="6.40234">
        <ele>410.62</ele>
        <time>2015-03-02T11:50:08Z</time>
      </trkpt>
      <trkpt lat="43.23404" lon="6.40237">
        <ele>412.06</ele>
        <time>2015-03-02T11:50:28Z</time>
      </trkpt>
      <trkpt lat="43.23406" lon="6.40238">
        <ele>413.02</ele>
        <time>2015-03-02T11:50:55Z</time>
      </trkpt>
      <trkpt lat="43.23404" lon="6.40239">
        <ele>411.1</ele>
        <time>2015-03-02T11:51:24Z</time>
      </trkpt>
      <trkpt lat="43.23405" lon="6.4024">
        <ele>413.98</ele>
        <time>2015-03-02T11:51:52Z</time>
      </trkpt>
      <trkpt lat="43.23405" lon="6.4024">
        <ele>412.54</ele>
        <time>2015-03-02T11:52:10Z</time>
      </trkpt>
      <trkpt lat="43.234" lon="6.4024">
        <ele>407.74</ele>
        <time>2015-03-02T11:52:33Z</time>
      </trkpt>
      <trkpt lat="43.23398" lon="6.40236">
        <ele>408.7</ele>
        <time>2015-03-02T11:52:50Z</time>
      </trkpt>
      <trkpt lat="43.23399" lon="6.40234">
        <ele>409.66</ele>
        <time>2015-03-02T11:53:11Z</time>
      </trkpt>
      <trkpt lat="43.23399" lon="6.4023">
        <ele>411.58</ele>
        <time>2015-03-02T11:53:33Z</time>
      </trkpt>
      <trkpt lat="43.23399" lon="6.4023">
        <ele>412.06</ele>
        <time>2015-03-02T11:53:51Z</time>
      </trkpt>
      <trkpt lat="43.23401" lon="6.40235">
        <ele>411.1</ele>
        <time>2015-03-02T11:54:14Z</time>
      </trkpt>
      <trkpt lat="43.23401" lon="6.40237">
        <ele>410.14</ele>
        <time>2015-03-02T11:54:35Z</time>
      </trkpt>
      <trkpt lat="43.23398" lon="6.4024">
        <ele>411.58</ele>
        <time>2015-03-02T11:55:02Z</time>
      </trkpt>
      <trkpt lat="43.23399" lon="6.40241">
        <ele>411.1</ele>
        <time>2015-03-02T11:55:18Z</time>
      </trkpt>
      <trkpt lat="43.23396" lon="6.40238">
        <ele>410.14</ele>
        <time>2015-03-02T11:55:37Z</time>
      </trkpt>
      <trkpt lat="43.234" lon="6.40236">
        <ele>411.58</ele>
        <time>2015-03-02T11:55:57Z</time>
      </trkpt>
      <trkpt lat="43.23398" lon="6.40238">
        <ele>413.5</ele>
        <time>2015-03-02T11:56:21Z</time>
      </trkpt>
      <trkpt lat="43.23398" lon="6.40238">
        <ele>415.91</ele>
        <time>2015-03-02T11:56:49Z</time>
      </trkpt>
      <trkpt lat="43.23398" lon="6.40246">
        <ele>414.95</ele>
        <time>2015-03-02T11:57:15Z</time>
      </trkpt>
      <trkpt lat="43.23398" lon="6.40243">
        <ele>410.14</ele>
        <time>2015-03-02T11:57:29Z</time>
      </trkpt>
      <trkpt lat="43.234" lon="6.40236">
        <ele>409.18</ele>
        <time>2015-03-02T11:57:46Z</time>
      </trkpt>
      <trkpt lat="43.234" lon="6.40233">
        <ele>408.22</ele>
        <time>2015-03-02T11:58:03Z</time>
      </trkpt>
      <trkpt lat="43.23397" lon="6.40233">
        <ele>405.81</ele>
        <time>2015-03-02T11:58:15Z</time>
      </trkpt>
      <trkpt lat="43.23399" lon="6.40238">
        <ele>407.26</ele>
        <time>2015-03-02T11:58:42Z</time>
      </trkpt>
      <trkpt lat="43.23397" lon="6.40237">
        <ele>404.37</ele>
        <time>2015-03-02T11:58:57Z</time>
      </trkpt>
      <trkpt lat="43.23401" lon="6.40237">
        <ele>408.7</ele>
        <time>2015-03-02T11:59:20Z</time>
      </trkpt>
      <trkpt lat="43.23405" lon="6.40241">
        <ele>414.47</ele>
        <time>2015-03-02T11:59:47Z</time>
      </trkpt>
      <trkpt lat="43.23408" lon="6.40237">
        <ele>414.47</ele>
        <time>2015-03-02T12:00:11Z</time>
      </trkpt>
      <trkpt lat="43.23404" lon="6.40235">
        <ele>418.31</ele>
        <time>2015-03-02T12:00:44Z</time>
      </trkpt>
      <trkpt lat="43.23403" lon="6.40242">
        <ele>419.27</ele>
        <time>2015-03-02T12:01:09Z</time>
      </trkpt>
      <trkpt lat="43.23401" lon="6.40241">
        <ele>417.35</ele>
        <time>2015-03-02T12:01:34Z</time>
      </trkpt>
      <trkpt lat="43.23402" lon="6.4024">
        <ele>415.43</ele>
        <time>2015-03-02T12:02:05Z</time>
      </trkpt>
      <trkpt lat="43.23402" lon="6.40238">
        <ele>414.95</ele>
        <time>2015-03-02T12:02:33Z</time>
      </trkpt>
      <trkpt lat="43.23404" lon="6.40238">
        <ele>415.91</ele>
        <time>2015-03-02T12:02:56Z</time>
      </trkpt>
      <trkpt lat="43.23403" lon="6.40239">
        <ele>416.87</ele>
        <time>2015-03-02T12:03:27Z</time>
      </trkpt>
      <trkpt lat="43.23402" lon="6.40246">
        <ele>416.87</ele>
        <time>2015-03-02T12:03:47Z</time>
      </trkpt>
      <trkpt lat="43.23401" lon="6.40241">
        <ele>415.91</ele>
        <time>2015-03-02T12:04:13Z</time>
      </trkpt>
      <trkpt lat="43.23403" lon="6.40239">
        <ele>413.5</ele>
        <time>2015-03-02T12:04:41Z</time>
      </trkpt>
      <trkpt lat="43.23399" lon="6.40241">
        <ele>415.43</ele>
        <time>2015-03-02T12:05:15Z</time>
      </trkpt>
      <trkpt lat="43.234" lon="6.40246">
        <ele>416.39</ele>
        <time>2015-03-02T12:05:45Z</time>
      </trkpt>
      <trkpt lat="43.23402" lon="6.40241">
        <ele>414.47</ele>
        <time>2015-03-02T12:06:09Z</time>
      </trkpt>
      <trkpt lat="43.23395" lon="6.40247">
        <ele>414.95</ele>
        <time>2015-03-02T12:06:46Z</time>
      </trkpt>
      <trkpt lat="43.23399" lon="6.40238">
        <ele>411.1</ele>
        <time>2015-03-02T12:07:18Z</time>
      </trkpt>
      <trkpt lat="43.23401" lon="6.40237">
        <ele>412.06</ele>
        <time>2015-03-02T12:07:54Z</time>
      </trkpt>
      <trkpt lat="43.23404" lon="6.4024">
        <ele>414.47</ele>
        <time>2015-03-02T12:08:25Z</time>
      </trkpt>
      <trkpt lat="43.23401" lon="6.40236">
        <ele>414.95</ele>
        <time>2015-03-02T12:08:54Z</time>
      </trkpt>
      <trkpt lat="43.23402" lon="6.40238">
        <ele>413.5</ele>
        <time>2015-03-02T12:09:16Z</time>
      </trkpt>
      <trkpt lat="43.23401" lon="6.40237">
        <ele>415.91</ele>
        <time>2015-03-02T12:09:40Z</time>
      </trkpt>
      <trkpt lat="43.23403" lon="6.40235">
        <ele>413.5</ele>
        <time>2015-03-02T12:10:06Z</time>
      </trkpt>
      <trkpt lat="43.23407" lon="6.40239">
        <ele>413.98</ele>
        <time>2015-03-02T12:10:31Z</time>
      </trkpt>
      <trkpt lat="43.23406" lon="6.40241">
        <ele>414.95</ele>
        <time>2015-03-02T12:10:56Z</time>
      </trkpt>
      <trkpt lat="43.234" lon="6.40234">
        <ele>408.7</ele>
        <time>2015-03-02T12:11:21Z</time>
      </trkpt>
      <trkpt lat="43.23397" lon="6.40236">
        <ele>406.29</ele>
        <time>2015-03-02T12:11:38Z</time>
      </trkpt>
      <trkpt lat="43.23398" lon="6.40237">
        <ele>410.62</ele>
        <time>2015-03-02T12:12:12Z</time>
      </trkpt>
      <trkpt lat="43.23401" lon="6.40236">
        <ele>410.62</ele>
        <time>2015-03-02T12:12:42Z</time>
      </trkpt>
      <trkpt lat="43.234" lon="6.40239">
        <ele>409.18</ele>
        <time>2015-03-02T12:13:19Z</time>
      </trkpt>
      <trkpt lat="43.23401" lon="6.40238">
        <ele>411.58</ele>
        <time>2015-03-02T12:13:52Z</time>
      </trkpt>
      <trkpt lat="43.23402" lon="6.40238">
        <ele>412.06</ele>
        <time>2015-03-02T12:14:24Z</time>
      </trkpt>
      <trkpt lat="43.23403" lon="6.40239">
        <ele>411.1</ele>
        <time>2015-03-02T12:14:47Z</time>
      </trkpt>
      <trkpt lat="43.23404" lon="6.40242">
        <ele>412.54</ele>
        <time>2015-03-02T12:15:19Z</time>
      </trkpt>
      <trkpt lat="43.23403" lon="6.40244">
        <ele>413.02</ele>
        <time>2015-03-02T12:15:45Z</time>
      </trkpt>
      <trkpt lat="43.23399" lon="6.40241">
        <ele>415.43</ele>
        <time>2015-03-02T12:16:12Z</time>
      </trkpt>
      <trkpt lat="43.23397" lon="6.40242">
        <ele>415.91</ele>
        <time>2015-03-02T12:16:45Z</time>
      </trkpt>
      <trkpt lat="43.23403" lon="6.40244">
        <ele>412.06</ele>
        <time>2015-03-02T12:17:19Z</time>
      </trkpt>
      <trkpt lat="43.23403" lon="6.40243">
        <ele>412.54</ele>
        <time>2015-03-02T12:17:51Z</time>
      </trkpt>
      <trkpt lat="43.23404" lon="6.40242">
        <ele>410.14</ele>
        <time>2015-03-02T12:18:25Z</time>
      </trkpt>
      <trkpt lat="43.23403" lon="6.40244">
        <ele>409.66</ele>
        <time>2015-03-02T12:18:52Z</time>
      </trkpt>
      <trkpt lat="43.23402" lon="6.40242">
        <ele>410.62</ele>
        <time>2015-03-02T12:19:13Z</time>
      </trkpt>
      <trkpt lat="43.23399" lon="6.40241">
        <ele>411.1</ele>
        <time>2015-03-02T12:19:42Z</time>
      </trkpt>
      <trkpt lat="43.23401" lon="6.40236">
        <ele>408.22</ele>
        <time>2015-03-02T12:20:10Z</time>
      </trkpt>
      <trkpt lat="43.23396" lon="6.40235">
        <ele>405.33</ele>
        <time>2015-03-02T12:20:43Z</time>
      </trkpt>
      <trkpt lat="43.23398" lon="6.40236">
        <ele>412.06</ele>
        <time>2015-03-02T12:21:12Z</time>
      </trkpt>
      <trkpt lat="43.23397" lon="6.4024">
        <ele>408.7</ele>
        <time>2015-03-02T12:21:43Z</time>
      </trkpt>
      <trkpt lat="43.23397" lon="6.40246">
        <ele>412.06</ele>
        <time>2015-03-02T12:22:09Z</time>
      </trkpt>
      <trkpt lat="43.23395" lon="6.40239">
        <ele>405.33</ele>
        <time>2015-03-02T12:22:24Z</time>
      </trkpt>
      <trkpt lat="43.23399" lon="6.40238">
        <ele>403.41</ele>
        <time>2015-03-02T12:22:45Z</time>
      </trkpt>
      <trkpt lat="43.234" lon="6.40236">
        <ele>402.45</ele>
        <time>2015-03-02T12:23:13Z</time>
      </trkpt>
      <trkpt lat="43.23399" lon="6.40234">
        <ele>403.41</ele>
        <time>2015-03-02T12:23:45Z</time>
      </trkpt>
      <trkpt lat="43.23401" lon="6.4024">
        <ele>405.33</ele>
        <time>2015-03-02T12:24:15Z</time>
      </trkpt>
      <trkpt lat="43.23401" lon="6.40242">
        <ele>407.74</ele>
        <time>2015-03-02T12:24:43Z</time>
      </trkpt>
      <trkpt lat="43.23396" lon="6.40243">
        <ele>408.7</ele>
        <time>2015-03-02T12:25:23Z</time>
      </trkpt>
      <trkpt lat="43.23392" lon="6.40243">
        <ele>405.81</ele>
        <time>2015-03-02T12:25:57Z</time>
      </trkpt>
      <trkpt lat="43.23398" lon="6.40253">
        <ele>413.98</ele>
        <time>2015-03-02T12:26:37Z</time>
      </trkpt>
      <trkpt lat="43.23396" lon="6.40258">
        <ele>419.27</ele>
        <time>2015-03-02T12:27:09Z</time>
      </trkpt>
      <trkpt lat="43.23395" lon="6.40251">
        <ele>421.19</ele>
        <time>2015-03-02T12:27:43Z</time>
      </trkpt>
      <trkpt lat="43.23394" lon="6.40252">
        <ele>425.52</ele>
        <time>2015-03-02T12:28:12Z</time>
      </trkpt>
      <trkpt lat="43.23393" lon="6.40254">
        <ele>426.96</ele>
        <time>2015-03-02T12:28:47Z</time>
      </trkpt>
      <trkpt lat="43.23401" lon="6.4025">
        <ele>423.12</ele>
        <time>2015-03-02T12:29:12Z</time>
      </trkpt>
      <trkpt lat="43.23405" lon="6.40246">
        <ele>417.83</ele>
        <time>2015-03-02T12:29:41Z</time>
      </trkpt>
      <trkpt lat="43.23407" lon="6.40244">
        <ele>414.95</ele>
        <time>2015-03-02T12:30:09Z</time>
      </trkpt>
      <trkpt lat="43.23405" lon="6.40246">
        <ele>414.47</ele>
        <time>2015-03-02T12:30:32Z</time>
      </trkpt>
      <trkpt lat="43.23406" lon="6.4024">
        <ele>412.54</ele>
        <time>2015-03-02T12:31:03Z</time>
      </trkpt>
      <trkpt lat="43.23405" lon="6.40243">
        <ele>413.02</ele>
        <time>2015-03-02T12:31:34Z</time>
      </trkpt>
      <trkpt lat="43.23399" lon="6.40243">
        <ele>418.79</ele>
        <time>2015-03-02T12:32:09Z</time>
      </trkpt>
      <trkpt lat="43.23394" lon="6.40245">
        <ele>419.75</ele>
        <time>2015-03-02T12:32:44Z</time>
      </trkpt>
      <trkpt lat="43.23395" lon="6.4025">
        <ele>422.16</ele>
        <time>2015-03-02T12:33:15Z</time>
      </trkpt>
      <trkpt lat="43.23393" lon="6.40254">
        <ele>423.6</ele>
        <time>2015-03-02T12:33:49Z</time>
      </trkpt>
      <trkpt lat="43.23393" lon="6.40248">
        <ele>422.64</ele>
        <time>2015-03-02T12:34:28Z</time>
      </trkpt>
      <trkpt lat="43.23395" lon="6.40248">
        <ele>425.52</ele>
        <time>2015-03-02T12:35:07Z</time>
      </trkpt>
      <trkpt lat="43.23396" lon="6.40245">
        <ele>421.68</ele>
        <time>2015-03-02T12:35:43Z</time>
      </trkpt>
      <trkpt lat="43.23397" lon="6.40244">
        <ele>418.79</ele>
        <time>2015-03-02T12:36:19Z</time>
      </trkpt>
      <trkpt lat="43.23395" lon="6.40244">
        <ele>414.95</ele>
        <time>2015-03-02T12:36:55Z</time>
      </trkpt>
      <trkpt lat="43.23396" lon="6.40247">
        <ele>414.95</ele>
        <time>2015-03-02T12:37:32Z</time>
      </trkpt>
      <trkpt lat="43.23394" lon="6.40246">
        <ele>411.58</ele>
        <time>2015-03-02T12:38:10Z</time>
      </trkpt>
      <trkpt lat="43.23393" lon="6.40241">
        <ele>407.74</ele>
        <time>2015-03-02T12:38:41Z</time>
      </trkpt>
      <trkpt lat="43.23392" lon="6.40243">
        <ele>413.5</ele>
        <time>2015-03-02T12:39:13Z</time>
      </trkpt>
      <trkpt lat="43.23395" lon="6.4024">
        <ele>409.66</ele>
        <time>2015-03-02T12:39:52Z</time>
      </trkpt>
      <trkpt lat="43.23396" lon="6.40238">
        <ele>412.06</ele>
        <time>2015-03-02T12:40:24Z</time>
      </trkpt>
      <trkpt lat="43.23392" lon="6.40244">
        <ele>418.31</ele>
        <time>2015-03-02T12:41:03Z</time>
      </trkpt>
      <trkpt lat="43.23393" lon="6.40246">
        <ele>419.27</ele>
        <time>2015-03-02T12:41:40Z</time>
      </trkpt>
      <trkpt lat="43.23396" lon="6.40246">
        <ele>418.79</ele>
        <time>2015-03-02T12:42:11Z</time>
      </trkpt>
      <trkpt lat="43.23399" lon="6.40243">
        <ele>415.43</ele>
        <time>2015-03-02T12:42:51Z</time>
      </trkpt>
      <trkpt lat="43.23406" lon="6.40243">
        <ele>415.91</ele>
        <time>2015-03-02T12:43:20Z</time>
      </trkpt>
      <trkpt lat="43.23406" lon="6.40234">
        <ele>411.1</ele>
        <time>2015-03-02T12:43:54Z</time>
      </trkpt>
      <trkpt lat="43.23405" lon="6.40232">
        <ele>406.77</ele>
        <time>2015-03-02T12:44:23Z</time>
      </trkpt>
      <trkpt lat="43.23407" lon="6.40241">
        <ele>409.18</ele>
        <time>2015-03-02T12:44:56Z</time>
      </trkpt>
      <trkpt lat="43.23408" lon="6.40237">
        <ele>408.22</ele>
        <time>2015-03-02T12:45:22Z</time>
      </trkpt>
      <trkpt lat="43.23407" lon="6.40234">
        <ele>402.45</ele>
        <time>2015-03-02T12:45:50Z</time>
      </trkpt>
      <trkpt lat="43.23411" lon="6.40235">
        <ele>403.89</ele>
        <time>2015-03-02T12:46:23Z</time>
      </trkpt>
      <trkpt lat="43.2341" lon="6.40239">
        <ele>406.29</ele>
        <time>2015-03-02T12:46:57Z</time>
      </trkpt>
      <trkpt lat="43.23407" lon="6.40235">
        <ele>409.18</ele>
        <time>2015-03-02T12:47:18Z</time>
      </trkpt>
      <trkpt lat="43.23403" lon="6.40233">
        <ele>406.77</ele>
        <time>2015-03-02T12:47:38Z</time>
      </trkpt>
      <trkpt lat="43.23397" lon="6.4023">
        <ele>404.37</ele>
        <time>2015-03-02T12:47:58Z</time>
      </trkpt>
      <trkpt lat="43.23401" lon="6.40235">
        <ele>406.29</ele>
        <time>2015-03-02T12:48:15Z</time>
      </trkpt>
      <trkpt lat="43.23404" lon="6.40229">
        <ele>403.41</ele>
        <time>2015-03-02T12:48:35Z</time>
      </trkpt>
      <trkpt lat="43.23407" lon="6.4023">
        <ele>404.85</ele>
        <time>2015-03-02T12:48:59Z</time>
      </trkpt>
      <trkpt lat="43.23407" lon="6.40235">
        <ele>404.37</ele>
        <time>2015-03-02T12:49:21Z</time>
      </trkpt>
      <trkpt lat="43.23408" lon="6.40236">
        <ele>403.89</ele>
        <time>2015-03-02T12:49:44Z</time>
      </trkpt>
      <trkpt lat="43.23408" lon="6.40234">
        <ele>402.93</ele>
        <time>2015-03-02T12:49:59Z</time>
      </trkpt>
      <trkpt lat="43.23407" lon="6.40226">
        <ele>402.45</ele>
        <time>2015-03-02T12:50:18Z</time>
      </trkpt>
      <trkpt lat="43.23414" lon="6.40218">
        <ele>400.05</ele>
        <time>2015-03-02T12:50:31Z</time>
      </trkpt>
      <trkpt lat="43.23422" lon="6.4021">
        <ele>398.12</ele>
        <time>2015-03-02T12:50:47Z</time>
      </trkpt>
      <trkpt lat="43.2343" lon="6.40202">
        <ele>398.6</ele>
        <time>2015-03-02T12:51:00Z</time>
      </trkpt>
      <trkpt lat="43.23437" lon="6.40192">
        <ele>398.6</ele>
        <time>2015-03-02T12:51:15Z</time>
      </trkpt>
      <trkpt lat="43.23445" lon="6.40183">
        <ele>398.12</ele>
        <time>2015-03-02T12:51:29Z</time>
      </trkpt>
      <trkpt lat="43.23452" lon="6.40171">
        <ele>394.76</ele>
        <time>2015-03-02T12:51:46Z</time>
      </trkpt>
      <trkpt lat="43.23464" lon="6.4016">
        <ele>395.72</ele>
        <time>2015-03-02T12:52:01Z</time>
      </trkpt>
      <trkpt lat="43.23475" lon="6.40153">
        <ele>398.12</ele>
        <time>2015-03-02T12:52:16Z</time>
      </trkpt>
      <trkpt lat="43.23481" lon="6.4015">
        <ele>398.12</ele>
        <time>2015-03-02T12:52:24Z</time>
      </trkpt>
      <trkpt lat="43.23485" lon="6.40148">
        <ele>396.2</ele>
        <time>2015-03-02T12:52:42Z</time>
      </trkpt>
      <trkpt lat="43.23487" lon="6.40147">
        <ele>396.2</ele>
        <time>2015-03-02T12:53:01Z</time>
      </trkpt>
      <trkpt lat="43.23494" lon="6.40146">
        <ele>399.57</ele>
        <time>2015-03-02T12:53:15Z</time>
      </trkpt>
      <trkpt lat="43.23497" lon="6.40143">
        <ele>399.57</ele>
        <time>2015-03-02T12:53:19Z</time>
      </trkpt>
      <trkpt lat="43.23502" lon="6.40136">
        <ele>401.01</ele>
        <time>2015-03-02T12:53:29Z</time>
      </trkpt>
      <trkpt lat="43.23505" lon="6.4012">
        <ele>401.01</ele>
        <time>2015-03-02T12:53:46Z</time>
      </trkpt>
      <trkpt lat="43.23505" lon="6.40103">
        <ele>401.97</ele>
        <time>2015-03-02T12:54:01Z</time>
      </trkpt>
      <trkpt lat="43.23505" lon="6.40083">
        <ele>404.37</ele>
        <time>2015-03-02T12:54:16Z</time>
      </trkpt>
      <trkpt lat="43.235" lon="6.40061">
        <ele>413.5</ele>
        <time>2015-03-02T12:54:35Z</time>
      </trkpt>
      <trkpt lat="43.23498" lon="6.40042">
        <ele>414.95</ele>
        <time>2015-03-02T12:54:49Z</time>
      </trkpt>
      <trkpt lat="43.235" lon="6.40038">
        <ele>414.47</ele>
        <time>2015-03-02T12:55:04Z</time>
      </trkpt>
      <trkpt lat="43.23501" lon="6.40042">
        <ele>420.23</ele>
        <time>2015-03-02T12:55:31Z</time>
      </trkpt>
      <trkpt lat="43.23501" lon="6.40034">
        <ele>425.52</ele>
        <time>2015-03-02T12:55:56Z</time>
      </trkpt>
      <trkpt lat="43.23499" lon="6.40036">
        <ele>423.12</ele>
        <time>2015-03-02T12:56:23Z</time>
      </trkpt>
      <trkpt lat="43.23497" lon="6.40037">
        <ele>427.92</ele>
        <time>2015-03-02T12:56:35Z</time>
      </trkpt>
      <trkpt lat="43.23499" lon="6.40039">
        <ele>428.4</ele>
        <time>2015-03-02T12:56:38Z</time>
      </trkpt>
      <trkpt lat="43.2351" lon="6.40044">
        <ele>421.68</ele>
        <time>2015-03-02T12:56:52Z</time>
      </trkpt>
      <trkpt lat="43.23513" lon="6.40044">
        <ele>417.83</ele>
        <time>2015-03-02T12:57:05Z</time>
      </trkpt>
      <trkpt lat="43.23513" lon="6.40042">
        <ele>412.54</ele>
        <time>2015-03-02T12:57:32Z</time>
      </trkpt>
      <trkpt lat="43.23512" lon="6.40042">
        <ele>412.06</ele>
        <time>2015-03-02T12:57:55Z</time>
      </trkpt>
      <trkpt lat="43.23512" lon="6.40049">
        <ele>414.47</ele>
        <time>2015-03-02T12:58:18Z</time>
      </trkpt>
      <trkpt lat="43.23512" lon="6.40051">
        <ele>416.87</ele>
        <time>2015-03-02T12:58:38Z</time>
      </trkpt>
      <trkpt lat="43.23509" lon="6.40051">
        <ele>418.79</ele>
        <time>2015-03-02T12:58:56Z</time>
      </trkpt>
      <trkpt lat="43.23503" lon="6.40052">
        <ele>423.12</ele>
        <time>2015-03-02T12:59:21Z</time>
      </trkpt>
      <trkpt lat="43.23503" lon="6.40051">
        <ele>424.08</ele>
        <time>2015-03-02T12:59:41Z</time>
      </trkpt>
      <trkpt lat="43.23503" lon="6.40051">
        <ele>425.52</ele>
        <time>2015-03-02T12:59:58Z</time>
      </trkpt>
      <trkpt lat="43.23504" lon="6.4005">
        <ele>425.52</ele>
        <time>2015-03-02T13:00:17Z</time>
      </trkpt>
      <trkpt lat="43.23504" lon="6.4005">
        <ele>427.44</ele>
        <time>2015-03-02T13:00:38Z</time>
      </trkpt>
      <trkpt lat="43.23503" lon="6.40054">
        <ele>428.89</ele>
        <time>2015-03-02T13:01:04Z</time>
      </trkpt>
      <trkpt lat="43.23502" lon="6.40057">
        <ele>429.37</ele>
        <time>2015-03-02T13:01:25Z</time>
      </trkpt>
      <trkpt lat="43.23505" lon="6.40061">
        <ele>429.37</ele>
        <time>2015-03-02T13:01:39Z</time>
      </trkpt>
      <trkpt lat="43.23554" lon="6.40077">
        <ele>427.44</ele>
        <time>2015-03-02T13:06:34Z</time>
      </trkpt>
      <trkpt lat="43.23547" lon="6.40064">
        <ele>424.56</ele>
        <time>2015-03-02T13:07:01Z</time>
      </trkpt>
      <trkpt lat="43.23544" lon="6.40061">
        <ele>424.56</ele>
        <time>2015-03-02T13:07:26Z</time>
      </trkpt>
      <trkpt lat="43.23544" lon="6.40064">
        <ele>426</ele>
        <time>2015-03-02T13:07:48Z</time>
      </trkpt>
      <trkpt lat="43.23543" lon="6.4006">
        <ele>422.16</ele>
        <time>2015-03-02T13:08:25Z</time>
      </trkpt>
      <trkpt lat="43.23543" lon="6.40056">
        <ele>421.68</ele>
        <time>2015-03-02T13:08:47Z</time>
      </trkpt>
      <trkpt lat="43.23537" lon="6.40054">
        <ele>420.71</ele>
        <time>2015-03-02T13:09:10Z</time>
      </trkpt>
      <trkpt lat="43.23533" lon="6.40057">
        <ele>422.64</ele>
        <time>2015-03-02T13:09:36Z</time>
      </trkpt>
      <trkpt lat="43.2354" lon="6.40053">
        <ele>422.16</ele>
        <time>2015-03-02T13:09:58Z</time>
      </trkpt>
      <trkpt lat="43.23542" lon="6.40051">
        <ele>424.08</ele>
        <time>2015-03-02T13:10:22Z</time>
      </trkpt>
      <trkpt lat="43.23545" lon="6.40061">
        <ele>421.68</ele>
        <time>2015-03-02T13:10:44Z</time>
      </trkpt>
      <trkpt lat="43.23538" lon="6.40057">
        <ele>420.71</ele>
        <time>2015-03-02T13:11:08Z</time>
      </trkpt>
      <trkpt lat="43.23538" lon="6.40054">
        <ele>421.68</ele>
        <time>2015-03-02T13:11:14Z</time>
      </trkpt>
      <trkpt lat="43.23547" lon="6.40034">
        <ele>420.71</ele>
        <time>2015-03-02T13:11:55Z</time>
      </trkpt>
      <trkpt lat="43.23516" lon="6.40067">
        <ele>399.57</ele>
        <time>2015-03-02T13:15:05Z</time>
      </trkpt>
      <trkpt lat="43.23534" lon="6.40065">
        <ele>414.47</ele>
        <time>2015-03-02T13:15:27Z</time>
      </trkpt>
      <trkpt lat="43.23535" lon="6.40067">
        <ele>414.47</ele>
        <time>2015-03-02T13:15:30Z</time>
      </trkpt>
      <trkpt lat="43.23553" lon="6.40071">
        <ele>413.98</ele>
        <time>2015-03-02T13:15:52Z</time>
      </trkpt>
      <trkpt lat="43.23562" lon="6.40051">
        <ele>423.12</ele>
        <time>2015-03-02T13:18:02Z</time>
      </trkpt>
      <trkpt lat="43.23561" lon="6.40056">
        <ele>415.43</ele>
        <time>2015-03-02T13:18:14Z</time>
      </trkpt>
      <trkpt lat="43.23559" lon="6.4006">
        <ele>413.98</ele>
        <time>2015-03-02T13:18:38Z</time>
      </trkpt>
      <trkpt lat="43.23564" lon="6.40063">
        <ele>413.02</ele>
        <time>2015-03-02T13:18:50Z</time>
      </trkpt>
      <trkpt lat="43.23565" lon="6.40063">
        <ele>413.02</ele>
        <time>2015-03-02T13:19:04Z</time>
      </trkpt>
      <trkpt lat="43.23569" lon="6.40064">
        <ele>412.54</ele>
        <time>2015-03-02T13:19:22Z</time>
      </trkpt>
      <trkpt lat="43.23569" lon="6.40065">
        <ele>413.5</ele>
        <time>2015-03-02T13:19:41Z</time>
      </trkpt>
      <trkpt lat="43.23577" lon="6.40067">
        <ele>417.35</ele>
        <time>2015-03-02T13:19:59Z</time>
      </trkpt>
      <trkpt lat="43.23577" lon="6.40069">
        <ele>417.83</ele>
        <time>2015-03-02T13:20:19Z</time>
      </trkpt>
      <trkpt lat="43.23577" lon="6.40074">
        <ele>415.91</ele>
        <time>2015-03-02T13:20:33Z</time>
      </trkpt>
      <trkpt lat="43.23577" lon="6.40075">
        <ele>415.43</ele>
        <time>2015-03-02T13:20:47Z</time>
      </trkpt>
      <trkpt lat="43.23579" lon="6.4008">
        <ele>416.87</ele>
        <time>2015-03-02T13:21:01Z</time>
      </trkpt>
      <trkpt lat="43.23582" lon="6.40082">
        <ele>423.6</ele>
        <time>2015-03-02T13:21:33Z</time>
      </trkpt>
      <trkpt lat="43.23585" lon="6.4008">
        <ele>427.44</ele>
        <time>2015-03-02T13:21:53Z</time>
      </trkpt>
      <trkpt lat="43.23581" lon="6.40088">
        <ele>426.96</ele>
        <time>2015-03-02T13:22:08Z</time>
      </trkpt>
      <trkpt lat="43.23551" lon="6.40111">
        <ele>426.96</ele>
        <time>2015-03-02T13:22:41Z</time>
      </trkpt>
      <trkpt lat="43.23564" lon="6.401">
        <ele>437.54</ele>
        <time>2015-03-02T13:23:10Z</time>
      </trkpt>
      <trkpt lat="43.23574" lon="6.40084">
        <ele>421.19</ele>
        <time>2015-03-02T13:23:45Z</time>
      </trkpt>
      <trkpt lat="43.2358" lon="6.40095">
        <ele>418.79</ele>
        <time>2015-03-02T13:24:06Z</time>
      </trkpt>
      <trkpt lat="43.2358" lon="6.401">
        <ele>417.35</ele>
        <time>2015-03-02T13:24:34Z</time>
      </trkpt>
      <trkpt lat="43.2358" lon="6.40099">
        <ele>419.27</ele>
        <time>2015-03-02T13:25:03Z</time>
      </trkpt>
      <trkpt lat="43.23579" lon="6.40091">
        <ele>419.27</ele>
        <time>2015-03-02T13:25:28Z</time>
      </trkpt>
      <trkpt lat="43.23587" lon="6.40093">
        <ele>420.23</ele>
        <time>2015-03-02T13:25:49Z</time>
      </trkpt>
      <trkpt lat="43.23587" lon="6.40094">
        <ele>419.27</ele>
        <time>2015-03-02T13:26:08Z</time>
      </trkpt>
      <trkpt lat="43.23584" lon="6.40095">
        <ele>418.79</ele>
        <time>2015-03-02T13:26:36Z</time>
      </trkpt>
      <trkpt lat="43.2359" lon="6.40105">
        <ele>420.23</ele>
        <time>2015-03-02T13:26:59Z</time>
      </trkpt>
      <trkpt lat="43.23593" lon="6.40103">
        <ele>421.19</ele>
        <time>2015-03-02T13:27:28Z</time>
      </trkpt>
      <trkpt lat="43.23588" lon="6.40107">
        <ele>417.83</ele>
        <time>2015-03-02T13:27:53Z</time>
      </trkpt>
      <trkpt lat="43.23587" lon="6.40105">
        <ele>413.98</ele>
        <time>2015-03-02T13:28:18Z</time>
      </trkpt>
      <trkpt lat="43.23584" lon="6.40101">
        <ele>412.06</ele>
        <time>2015-03-02T13:28:41Z</time>
      </trkpt>
      <trkpt lat="43.23578" lon="6.401">
        <ele>411.58</ele>
        <time>2015-03-02T13:29:05Z</time>
      </trkpt>
      <trkpt lat="43.23582" lon="6.40096">
        <ele>413.5</ele>
        <time>2015-03-02T13:29:27Z</time>
      </trkpt>
      <trkpt lat="43.23577" lon="6.40091">
        <ele>415.43</ele>
        <time>2015-03-02T13:29:50Z</time>
      </trkpt>
      <trkpt lat="43.23583" lon="6.40095">
        <ele>415.43</ele>
        <time>2015-03-02T13:30:12Z</time>
      </trkpt>
      <trkpt lat="43.23585" lon="6.40097">
        <ele>415.43</ele>
        <time>2015-03-02T13:30:37Z</time>
      </trkpt>
      <trkpt lat="43.23594" lon="6.4009">
        <ele>415.43</ele>
        <time>2015-03-02T13:30:55Z</time>
      </trkpt>
      <trkpt lat="43.23598" lon="6.40089">
        <ele>415.43</ele>
        <time>2015-03-02T13:30:59Z</time>
      </trkpt>
      <trkpt lat="43.23619" lon="6.40083">
        <ele>416.39</ele>
        <time>2015-03-02T13:31:32Z</time>
      </trkpt>
      <trkpt lat="43.2361" lon="6.40086">
        <ele>417.35</ele>
        <time>2015-03-02T13:31:50Z</time>
      </trkpt>
      <trkpt lat="43.23612" lon="6.4008">
        <ele>417.35</ele>
        <time>2015-03-02T13:31:54Z</time>
      </trkpt>
      <trkpt lat="43.23622" lon="6.40081">
        <ele>415.43</ele>
        <time>2015-03-02T13:32:11Z</time>
      </trkpt>
      <trkpt lat="43.23639" lon="6.40092">
        <ele>415.43</ele>
        <time>2015-03-02T13:32:29Z</time>
      </trkpt>
      <trkpt lat="43.23587" lon="6.40107">
        <ele>415.43</ele>
        <time>2015-03-02T13:36:57Z</time>
      </trkpt>
      <trkpt lat="43.23621" lon="6.40063">
        <ele>470.7</ele>
        <time>2015-03-02T13:37:20Z</time>
      </trkpt>
      <trkpt lat="43.23614" lon="6.4007">
        <ele>483.2</ele>
        <time>2015-03-02T13:37:41Z</time>
      </trkpt>
      <trkpt lat="43.23621" lon="6.40078">
        <ele>481.76</ele>
        <time>2015-03-02T13:38:05Z</time>
      </trkpt>
      <trkpt lat="43.23592" lon="6.40061">
        <ele>479.84</ele>
        <time>2015-03-02T13:38:30Z</time>
      </trkpt>
      <trkpt lat="43.23578" lon="6.40048">
        <ele>479.35</ele>
        <time>2015-03-02T13:38:57Z</time>
      </trkpt>
      <trkpt lat="43.23572" lon="6.40066">
        <ele>479.84</ele>
        <time>2015-03-02T13:39:26Z</time>
      </trkpt>
      <trkpt lat="43.2358" lon="6.40066">
        <ele>472.14</ele>
        <time>2015-03-02T13:39:45Z</time>
      </trkpt>
      <trkpt lat="43.23584" lon="6.40077">
        <ele>449.55</ele>
        <time>2015-03-02T13:40:02Z</time>
      </trkpt>
      <trkpt lat="43.23583" lon="6.40102">
        <ele>444.75</ele>
        <time>2015-03-02T13:40:24Z</time>
      </trkpt>
      <trkpt lat="43.23598" lon="6.40088">
        <ele>443.31</ele>
        <time>2015-03-02T13:40:54Z</time>
      </trkpt>
      <trkpt lat="43.23597" lon="6.4008">
        <ele>442.82</ele>
        <time>2015-03-02T13:41:18Z</time>
      </trkpt>
      <trkpt lat="43.23599" lon="6.40062">
        <ele>440.42</ele>
        <time>2015-03-02T13:41:37Z</time>
      </trkpt>
      <trkpt lat="43.23598" lon="6.40074">
        <ele>438.5</ele>
        <time>2015-03-02T13:42:04Z</time>
      </trkpt>
      <trkpt lat="43.23596" lon="6.40074">
        <ele>438.98</ele>
        <time>2015-03-02T13:42:32Z</time>
      </trkpt>
      <trkpt lat="43.23593" lon="6.4008">
        <ele>434.17</ele>
        <time>2015-03-02T13:42:53Z</time>
      </trkpt>
      <trkpt lat="43.23594" lon="6.40076">
        <ele>430.81</ele>
        <time>2015-03-02T13:43:17Z</time>
      </trkpt>
      <trkpt lat="43.23594" lon="6.4008">
        <ele>434.17</ele>
        <time>2015-03-02T13:43:35Z</time>
      </trkpt>
      <trkpt lat="43.23596" lon="6.4008">
        <ele>434.17</ele>
        <time>2015-03-02T13:43:59Z</time>
      </trkpt>
      <trkpt lat="43.23587" lon="6.40084">
        <ele>431.77</ele>
        <time>2015-03-02T13:44:24Z</time>
      </trkpt>
      <trkpt lat="43.23581" lon="6.40085">
        <ele>436.1</ele>
        <time>2015-03-02T13:44:40Z</time>
      </trkpt>
      <trkpt lat="43.23583" lon="6.4008">
        <ele>430.33</ele>
        <time>2015-03-02T13:45:00Z</time>
      </trkpt>
      <trkpt lat="43.23581" lon="6.40076">
        <ele>425.04</ele>
        <time>2015-03-02T13:45:22Z</time>
      </trkpt>
      <trkpt lat="43.23581" lon="6.40072">
        <ele>420.71</ele>
        <time>2015-03-02T13:45:38Z</time>
      </trkpt>
      <trkpt lat="43.23582" lon="6.40066">
        <ele>417.35</ele>
        <time>2015-03-02T13:45:51Z</time>
      </trkpt>
      <trkpt lat="43.23573" lon="6.40068">
        <ele>417.35</ele>
        <time>2015-03-02T13:46:05Z</time>
      </trkpt>
      <trkpt lat="43.23563" lon="6.40065">
        <ele>419.27</ele>
        <time>2015-03-02T13:46:22Z</time>
      </trkpt>
      <trkpt lat="43.23557" lon="6.40064">
        <ele>418.79</ele>
        <time>2015-03-02T13:46:35Z</time>
      </trkpt>
      <trkpt lat="43.23552" lon="6.40061">
        <ele>414.95</ele>
        <time>2015-03-02T13:47:01Z</time>
      </trkpt>
      <trkpt lat="43.23551" lon="6.40052">
        <ele>417.35</ele>
        <time>2015-03-02T13:47:23Z</time>
      </trkpt>
      <trkpt lat="43.23551" lon="6.40051">
        <ele>419.75</ele>
        <time>2015-03-02T13:47:31Z</time>
      </trkpt>
      <trkpt lat="43.23484" lon="6.40051">
        <ele>419.27</ele>
        <time>2015-03-02T14:00:57Z</time>
      </trkpt>
      <trkpt lat="43.235" lon="6.40051">
        <ele>425.04</ele>
        <time>2015-03-02T14:01:09Z</time>
      </trkpt>
      <trkpt lat="43.23494" lon="6.40046">
        <ele>427.92</ele>
        <time>2015-03-02T14:01:24Z</time>
      </trkpt>
      <trkpt lat="43.23494" lon="6.40045">
        <ele>423.12</ele>
        <time>2015-03-02T14:01:45Z</time>
      </trkpt>
      <trkpt lat="43.23491" lon="6.40041">
        <ele>424.08</ele>
        <time>2015-03-02T14:02:02Z</time>
      </trkpt>
      <trkpt lat="43.23484" lon="6.40037">
        <ele>423.12</ele>
        <time>2015-03-02T14:02:17Z</time>
      </trkpt>
      <trkpt lat="43.2348" lon="6.40026">
        <ele>423.6</ele>
        <time>2015-03-02T14:02:30Z</time>
      </trkpt>
      <trkpt lat="43.23476" lon="6.40014">
        <ele>424.56</ele>
        <time>2015-03-02T14:02:44Z</time>
      </trkpt>
      <trkpt lat="43.23472" lon="6.40005">
        <ele>423.12</ele>
        <time>2015-03-02T14:02:59Z</time>
      </trkpt>
      <trkpt lat="43.2347" lon="6.39996">
        <ele>423.12</ele>
        <time>2015-03-02T14:03:15Z</time>
      </trkpt>
      <trkpt lat="43.23467" lon="6.39978">
        <ele>423.6</ele>
        <time>2015-03-02T14:03:29Z</time>
      </trkpt>
      <trkpt lat="43.23466" lon="6.39976">
        <ele>423.6</ele>
        <time>2015-03-02T14:03:49Z</time>
      </trkpt>
      <trkpt lat="43.23465" lon="6.39974">
        <ele>422.64</ele>
        <time>2015-03-02T14:03:56Z</time>
      </trkpt>
      <trkpt lat="43.23463" lon="6.3997">
        <ele>422.64</ele>
        <time>2015-03-02T14:04:00Z</time>
      </trkpt>
      <trkpt lat="43.23455" lon="6.39961">
        <ele>419.75</ele>
        <time>2015-03-02T14:04:11Z</time>
      </trkpt>
      <trkpt lat="43.23446" lon="6.39952">
        <ele>412.06</ele>
        <time>2015-03-02T14:04:24Z</time>
      </trkpt>
      <trkpt lat="43.23444" lon="6.39918">
        <ele>406.77</ele>
        <time>2015-03-02T14:04:39Z</time>
      </trkpt>
      <trkpt lat="43.23446" lon="6.39909">
        <ele>405.81</ele>
        <time>2015-03-02T14:04:45Z</time>
      </trkpt>
      <trkpt lat="43.23454" lon="6.39895">
        <ele>405.81</ele>
        <time>2015-03-02T14:04:59Z</time>
      </trkpt>
      <trkpt lat="43.23463" lon="6.39879">
        <ele>404.85</ele>
        <time>2015-03-02T14:05:16Z</time>
      </trkpt>
      <trkpt lat="43.23474" lon="6.39866">
        <ele>405.33</ele>
        <time>2015-03-02T14:05:32Z</time>
      </trkpt>
      <trkpt lat="43.23482" lon="6.39855">
        <ele>408.7</ele>
        <time>2015-03-02T14:05:46Z</time>
      </trkpt>
      <trkpt lat="43.23484" lon="6.39844">
        <ele>407.74</ele>
        <time>2015-03-02T14:06:00Z</time>
      </trkpt>
      <trkpt lat="43.23481" lon="6.39831">
        <ele>407.26</ele>
        <time>2015-03-02T14:06:15Z</time>
      </trkpt>
      <trkpt lat="43.2348" lon="6.39812">
        <ele>403.89</ele>
        <time>2015-03-02T14:06:31Z</time>
      </trkpt>
      <trkpt lat="43.23481" lon="6.39788">
        <ele>402.45</ele>
        <time>2015-03-02T14:06:47Z</time>
      </trkpt>
      <trkpt lat="43.23482" lon="6.39782">
        <ele>401.97</ele>
        <time>2015-03-02T14:06:52Z</time>
      </trkpt>
      <trkpt lat="43.23494" lon="6.39782">
        <ele>397.64</ele>
        <time>2015-03-02T14:07:07Z</time>
      </trkpt>
      <trkpt lat="43.23504" lon="6.39792">
        <ele>393.8</ele>
        <time>2015-03-02T14:07:22Z</time>
      </trkpt>
      <trkpt lat="43.23513" lon="6.39804">
        <ele>393.8</ele>
        <time>2015-03-02T14:07:35Z</time>
      </trkpt>
      <trkpt lat="43.23525" lon="6.39812">
        <ele>393.32</ele>
        <time>2015-03-02T14:07:49Z</time>
      </trkpt>
      <trkpt lat="43.23526" lon="6.39813">
        <ele>393.32</ele>
        <time>2015-03-02T14:07:50Z</time>
      </trkpt>
      <trkpt lat="43.23538" lon="6.39821">
        <ele>390.43</ele>
        <time>2015-03-02T14:08:04Z</time>
      </trkpt>
      <trkpt lat="43.2355" lon="6.39831">
        <ele>390.91</ele>
        <time>2015-03-02T14:08:18Z</time>
      </trkpt>
      <trkpt lat="43.23562" lon="6.39841">
        <ele>390.91</ele>
        <time>2015-03-02T14:08:34Z</time>
      </trkpt>
      <trkpt lat="43.23563" lon="6.39843">
        <ele>390.91</ele>
        <time>2015-03-02T14:08:35Z</time>
      </trkpt>
      <trkpt lat="43.23566" lon="6.39849">
        <ele>391.87</ele>
        <time>2015-03-02T14:08:41Z</time>
      </trkpt>
      <trkpt lat="43.23574" lon="6.39857">
        <ele>393.8</ele>
        <time>2015-03-02T14:08:51Z</time>
      </trkpt>
      <trkpt lat="43.23588" lon="6.39862">
        <ele>397.64</ele>
        <time>2015-03-02T14:09:05Z</time>
      </trkpt>
      <trkpt lat="43.23598" lon="6.39859">
        <ele>401.97</ele>
        <time>2015-03-02T14:09:20Z</time>
      </trkpt>
      <trkpt lat="43.23607" lon="6.39846">
        <ele>399.08</ele>
        <time>2015-03-02T14:09:35Z</time>
      </trkpt>
      <trkpt lat="43.23614" lon="6.39829">
        <ele>397.64</ele>
        <time>2015-03-02T14:09:51Z</time>
      </trkpt>
      <trkpt lat="43.23622" lon="6.39814">
        <ele>394.76</ele>
        <time>2015-03-02T14:10:08Z</time>
      </trkpt>
      <trkpt lat="43.23633" lon="6.39798">
        <ele>394.76</ele>
        <time>2015-03-02T14:10:25Z</time>
      </trkpt>
      <trkpt lat="43.23641" lon="6.39791">
        <ele>396.2</ele>
        <time>2015-03-02T14:10:35Z</time>
      </trkpt>
      <trkpt lat="43.23662" lon="6.39781">
        <ele>402.45</ele>
        <time>2015-03-02T14:10:54Z</time>
      </trkpt>
      <trkpt lat="43.23674" lon="6.39773">
        <ele>405.33</ele>
        <time>2015-03-02T14:11:06Z</time>
      </trkpt>
      <trkpt lat="43.23681" lon="6.3977">
        <ele>406.77</ele>
        <time>2015-03-02T14:11:22Z</time>
      </trkpt>
      <trkpt lat="43.23686" lon="6.39765">
        <ele>412.54</ele>
        <time>2015-03-02T14:11:58Z</time>
      </trkpt>
      <trkpt lat="43.237" lon="6.39753">
        <ele>417.35</ele>
        <time>2015-03-02T14:12:15Z</time>
      </trkpt>
      <trkpt lat="43.2371" lon="6.3974">
        <ele>417.35</ele>
        <time>2015-03-02T14:12:31Z</time>
      </trkpt>
      <trkpt lat="43.23721" lon="6.39724">
        <ele>419.75</ele>
        <time>2015-03-02T14:12:45Z</time>
      </trkpt>
      <trkpt lat="43.23733" lon="6.39712">
        <ele>418.31</ele>
        <time>2015-03-02T14:13:01Z</time>
      </trkpt>
      <trkpt lat="43.23747" lon="6.39702">
        <ele>419.75</ele>
        <time>2015-03-02T14:13:16Z</time>
      </trkpt>
      <trkpt lat="43.23759" lon="6.39693">
        <ele>419.27</ele>
        <time>2015-03-02T14:13:30Z</time>
      </trkpt>
      <trkpt lat="43.23775" lon="6.39695">
        <ele>420.23</ele>
        <time>2015-03-02T14:13:46Z</time>
      </trkpt>
      <trkpt lat="43.23782" lon="6.39691">
        <ele>420.71</ele>
        <time>2015-03-02T14:13:53Z</time>
      </trkpt>
      <trkpt lat="43.23786" lon="6.3967">
        <ele>423.12</ele>
        <time>2015-03-02T14:14:13Z</time>
      </trkpt>
      <trkpt lat="43.23786" lon="6.39657">
        <ele>423.6</ele>
        <time>2015-03-02T14:14:26Z</time>
      </trkpt>
      <trkpt lat="43.23784" lon="6.39648">
        <ele>422.16</ele>
        <time>2015-03-02T14:14:41Z</time>
      </trkpt>
      <trkpt lat="43.23782" lon="6.39645">
        <ele>420.71</ele>
        <time>2015-03-02T14:15:00Z</time>
      </trkpt>
      <trkpt lat="43.23781" lon="6.39648">
        <ele>420.23</ele>
        <time>2015-03-02T14:15:16Z</time>
      </trkpt>
      <trkpt lat="43.23784" lon="6.39647">
        <ele>421.68</ele>
        <time>2015-03-02T14:15:34Z</time>
      </trkpt>
      <trkpt lat="43.23786" lon="6.3965">
        <ele>422.64</ele>
        <time>2015-03-02T14:15:57Z</time>
      </trkpt>
      <trkpt lat="43.23783" lon="6.39647">
        <ele>420.71</ele>
        <time>2015-03-02T14:16:09Z</time>
      </trkpt>
      <trkpt lat="43.2378" lon="6.39645">
        <ele>422.64</ele>
        <time>2015-03-02T14:16:29Z</time>
      </trkpt>
      <trkpt lat="43.23779" lon="6.39646">
        <ele>422.16</ele>
        <time>2015-03-02T14:16:47Z</time>
      </trkpt>
      <trkpt lat="43.23781" lon="6.39638">
        <ele>424.56</ele>
        <time>2015-03-02T14:17:07Z</time>
      </trkpt>
      <trkpt lat="43.23783" lon="6.39632">
        <ele>424.56</ele>
        <time>2015-03-02T14:17:21Z</time>
      </trkpt>
      <trkpt lat="43.23782" lon="6.39632">
        <ele>425.04</ele>
        <time>2015-03-02T14:17:33Z</time>
      </trkpt>
      <trkpt lat="43.23786" lon="6.39602">
        <ele>426.48</ele>
        <time>2015-03-02T14:17:50Z</time>
      </trkpt>
      <trkpt lat="43.23787" lon="6.39591">
        <ele>426.48</ele>
        <time>2015-03-02T14:18:04Z</time>
      </trkpt>
      <trkpt lat="43.23791" lon="6.39589">
        <ele>426</ele>
        <time>2015-03-02T14:18:33Z</time>
      </trkpt>
      <trkpt lat="43.23791" lon="6.39589">
        <ele>426.48</ele>
        <time>2015-03-02T14:18:34Z</time>
      </trkpt>
      <trkpt lat="43.23787" lon="6.39597">
        <ele>425.04</ele>
        <time>2015-03-02T14:18:45Z</time>
      </trkpt>
      <trkpt lat="43.23787" lon="6.39597">
        <ele>423.6</ele>
        <time>2015-03-02T14:18:51Z</time>
      </trkpt>
      <trkpt lat="43.23788" lon="6.39591">
        <ele>422.64</ele>
        <time>2015-03-02T14:18:54Z</time>
      </trkpt>
      <trkpt lat="43.23784" lon="6.3954">
        <ele>421.68</ele>
        <time>2015-03-02T14:19:07Z</time>
      </trkpt>
      <trkpt lat="43.23764" lon="6.39495">
        <ele>423.12</ele>
        <time>2015-03-02T14:19:18Z</time>
      </trkpt>
      <trkpt lat="43.23754" lon="6.3948">
        <ele>423.6</ele>
        <time>2015-03-02T14:19:21Z</time>
      </trkpt>
      <trkpt lat="43.2375" lon="6.39476">
        <ele>424.08</ele>
        <time>2015-03-02T14:19:22Z</time>
      </trkpt>
      <trkpt lat="43.23746" lon="6.39472">
        <ele>424.08</ele>
        <time>2015-03-02T14:19:23Z</time>
      </trkpt>
      <trkpt lat="43.23729" lon="6.39456">
        <ele>425.04</ele>
        <time>2015-03-02T14:19:27Z</time>
      </trkpt>
      <trkpt lat="43.23725" lon="6.3945">
        <ele>425.04</ele>
        <time>2015-03-02T14:19:28Z</time>
      </trkpt>
      <trkpt lat="43.23721" lon="6.39127">
        <ele>419.75</ele>
        <time>2015-03-02T14:20:07Z</time>
      </trkpt>
      <trkpt lat="43.23724" lon="6.39118">
        <ele>420.71</ele>
        <time>2015-03-02T14:20:08Z</time>
      </trkpt>
      <trkpt lat="43.23725" lon="6.3911">
        <ele>420.71</ele>
        <time>2015-03-02T14:20:09Z</time>
      </trkpt>
      <trkpt lat="43.23725" lon="6.39102">
        <ele>421.19</ele>
        <time>2015-03-02T14:20:10Z</time>
      </trkpt>
      <trkpt lat="43.23723" lon="6.39094">
        <ele>420.23</ele>
        <time>2015-03-02T14:20:11Z</time>
      </trkpt>
      <trkpt lat="43.23721" lon="6.39084">
        <ele>419.27</ele>
        <time>2015-03-02T14:20:12Z</time>
      </trkpt>
      <trkpt lat="43.23716" lon="6.39078">
        <ele>416.87</ele>
        <time>2015-03-02T14:20:13Z</time>
      </trkpt>
      <trkpt lat="43.23712" lon="6.39074">
        <ele>416.39</ele>
        <time>2015-03-02T14:20:14Z</time>
      </trkpt>
      <trkpt lat="43.23707" lon="6.39068">
        <ele>416.39</ele>
        <time>2015-03-02T14:20:15Z</time>
      </trkpt>
      <trkpt lat="43.23702" lon="6.39061">
        <ele>417.35</ele>
        <time>2015-03-02T14:20:16Z</time>
      </trkpt>
      <trkpt lat="43.23695" lon="6.39058">
        <ele>419.27</ele>
        <time>2015-03-02T14:20:17Z</time>
      </trkpt>
      <trkpt lat="43.23687" lon="6.39056">
        <ele>420.23</ele>
        <time>2015-03-02T14:20:18Z</time>
      </trkpt>
      <trkpt lat="43.2368" lon="6.39054">
        <ele>421.68</ele>
        <time>2015-03-02T14:20:19Z</time>
      </trkpt>
      <trkpt lat="43.23672" lon="6.39052">
        <ele>423.12</ele>
        <time>2015-03-02T14:20:20Z</time>
      </trkpt>
    </trkseg>
  </trk>
</gpx>